M I D A S
Marine Information and Data Acquisition System
Tripno 1073 of the Zeeleeuw from 2006-04-20 07:26:10 to 2006-04-20 11:05:24
Back to CruiseResearch ActivitiesStationsMapUnderway DataData graphs

EquipmentUnitsComment
TimeDGPSUTC
LatitudeDGPSDM.mWGS84
LongitudeDGPSDM.mWGS84
TemperatureSBE03/SBE38deg celciusITS90
ConductivitySBE21S/mITS90
SalinitySBE21 Practical Salinity Units
ChlorophylAChelsea fluorimeterg/lCalibrated in Aceton
Missing or incorrect values are displayed as -999
Sea surface data collected by the RV Zeeleeuw from 2006-04-20 07:25:49 to 2006-04-20 11:23:34
                                                                                    Next 1000 lines
Time Latitude Longitude Temperature Conductivity Salinity ChlorophylA
2006-04-20 07:25:59 51°13.601 2°56.093 -999 4.60091 34.326285 9.500118
2006-04-20 07:26:04 51°13.602 2°56.09 -999 4.601014 34.327805 9.500118
2006-04-20 07:26:09 51°13.602 2°56.087 -999 4.601014 34.327805 9.500118
2006-04-20 07:26:14 51°13.604 2°56.082 -999 4.600806 34.326069 9.500118
2006-04-20 07:26:20 51°13.605 2°56.076 -999 4.601014 34.327805 9.500118
2006-04-20 07:26:25 51°13.607 2°56.071 -999 4.60091 34.326937 9.500118
2006-04-20 07:26:30 51°13.608 2°56.065 -999 4.600806 34.326722 9.500118
2006-04-20 07:26:35 51°13.61 2°56.059 -999 4.60091 34.32759 9.500118
2006-04-20 07:26:40 51°13.611 2°56.052 -999 4.60091 34.32759 9.500118
2006-04-20 07:26:45 51°13.613 2°56.045 -999 4.600703 34.325202 9.500118
2006-04-20 07:26:50 51°13.614 2°56.037 -999 4.596551 34.289192 10.039469
2006-04-20 07:26:54 51°13.616 2°56.032 -999 4.264639 31.659092 19.107298
2006-04-20 07:27:00 51°13.618 2°56.022 -999 4.547669 34.028468 18.365691
2006-04-20 07:27:05 51°13.62 2°56.015 -999 3.882191 28.322856 21.129862
2006-04-20 07:27:10 51°13.621 2°56.007 -999 3.882191 28.322856 21.129862
2006-04-20 07:27:14 51°13.623 2°56.001 -999 4.192252 31.096763 12.871059
2006-04-20 07:27:20 51°13.625 2°55.991 -999 4.188229 32.316789 9.668665
2006-04-20 07:27:25 51°13.627 2°55.983 -999 4.255763 34.14448 10.477691
2006-04-20 07:27:30 51°13.629 2°55.975 -999 3.908159 32.085337 10.814785
2006-04-20 07:27:35 51°13.631 2°55.967 -999 3.778232 31.71196 10.679947
2006-04-20 07:27:40 51°13.633 2°55.958 -999 3.778232 31.71196 10.679947
2006-04-20 07:27:45 51°13.635 2°55.95 -999 3.709763 31.654676 10.578819
2006-04-20 07:27:50 51°13.638 2°55.941 -999 3.646273 31.432394 10.54511
2006-04-20 07:27:55 51°13.641 2°55.932 -999 3.596564 31.228703 10.477691
2006-04-20 07:28:00 51°13.644 2°55.923 -999 3.560424 31.032826 10.376563
2006-04-20 07:28:05 51°13.647 2°55.914 -999 3.548206 31.051214 10.309144
2006-04-20 07:28:10 51°13.651 2°55.905 -999 3.548206 31.051214 10.309144
2006-04-20 07:28:15 51°13.655 2°55.895 -999 3.520457 30.900063 10.174306
2006-04-20 07:28:20 51°13.659 2°55.886 -999 3.498818 30.785799 10.073178
2006-04-20 07:28:25 51°13.663 2°55.876 -999 3.495195 30.828288 9.97205
2006-04-20 07:28:30 51°13.667 2°55.867 -999 3.501304 30.936898 9.870922
2006-04-20 07:28:35 51°13.671 2°55.857 -999 3.455438 30.542341 9.769794
2006-04-20 07:28:40 51°13.675 2°55.848 -999 3.455438 30.542341 9.769794
2006-04-20 07:28:45 51°13.679 2°55.84 -999 3.474593 30.782667 9.702375
2006-04-20 07:28:50 51°13.683 2°55.832 -999 3.476768 30.852245 9.668665
2006-04-20 07:28:54 51°13.686 2°55.825 -999 3.498097 31.095328 9.702375
2006-04-20 07:29:00 51°13.69 2°55.816 -999 3.494991 31.090164 9.736084
2006-04-20 07:29:05 51°13.693 2°55.808 -999 3.490539 31.076202 9.668665
2006-04-20 07:29:10 51°13.696 2°55.8 -999 3.490539 31.076202 9.668665
2006-04-20 07:29:14 51°13.699 2°55.794 -999 3.499651 31.201689 9.601247
2006-04-20 07:29:20 51°13.702 2°55.785 -999 3.48878 31.117447 9.567537
2006-04-20 07:29:25 51°13.705 2°55.778 -999 3.488055 31.132129 9.533828
2006-04-20 07:29:30 51°13.707 2°55.771 -999 3.493854 31.202429 9.533828
2006-04-20 07:29:35 51°13.71 2°55.764 -999 3.488781 31.158937 9.533828
2006-04-20 07:29:40 51°13.712 2°55.757 -999 3.488781 31.158937 9.533828
2006-04-20 07:29:45 51°13.714 2°55.751 -999 3.471076 30.993258 9.500118
2006-04-20 07:29:50 51°13.716 2°55.744 -999 3.474286 31.03259 9.500118
2006-04-20 07:29:55 51°13.717 2°55.739 -999 3.468488 30.980384 9.533828
2006-04-20 07:29:59 51°13.719 2°55.734 -999 3.477288 31.069892 9.533828
2006-04-20 07:30:04 51°13.72 2°55.729 -999 3.474493 31.049707 9.533828
2006-04-20 07:30:09 51°13.721 2°55.724 -999 3.474493 31.049707 9.533828
2006-04-20 07:30:14 51°13.722 2°55.721 -999 3.47118 31.028901 9.533828
2006-04-20 07:30:20 51°13.722 2°55.716 -999 3.479773 31.110389 9.567537
2006-04-20 07:30:24 51°13.723 2°55.714 -999 3.470559 31.021232 9.601247
2006-04-20 07:30:29 51°13.723 2°55.713 -999 3.466521 30.991718 9.634956
2006-04-20 07:30:34 51°13.724 2°55.712 -999 3.479774 31.130041 9.702375
2006-04-20 07:30:40 51°13.725 2°55.713 -999 3.479774 31.130041 9.702375
2006-04-20 07:30:44 51°13.726 2°55.713 -999 3.476667 31.102981 9.736084
2006-04-20 07:30:49 51°13.727 2°55.715 -999 3.475736 31.102043 9.803503
2006-04-20 07:30:54 51°13.728 2°55.717 -999 3.48319 31.180637 9.870922
2006-04-20 07:30:59 51°13.729 2°55.719 -999 3.477496 31.131632 9.97205
2006-04-20 07:31:04 51°13.73 2°55.72 -999 3.47439 31.106825 10.140597
2006-04-20 07:31:10 51°13.731 2°55.721 -999 3.47439 31.106825 10.140597
2006-04-20 07:31:14 51°13.731 2°55.722 -999 3.471284 31.082768 10.174306
2006-04-20 07:31:20 51°13.732 2°55.722 -999 3.459067 30.967425 10.106888
2006-04-20 07:31:25 51°13.732 2°55.721 -999 3.452441 30.905372 10.106888
2006-04-20 07:31:30 51°13.732 2°55.72 -999 3.443952 30.81732 10.106888
2006-04-20 07:31:34 51°13.731 2°55.719 -999 3.429354 30.673948 10.106888
2006-04-20 07:31:39 51°13.73 2°55.717 -999 3.429354 30.673948 10.106888
2006-04-20 07:31:45 51°13.728 2°55.714 -999 3.422315 30.603372 10.140597
2006-04-20 07:31:49 51°13.726 2°55.712 -999 3.419106 30.576009 10.174306
2006-04-20 07:31:54 51°13.724 2°55.709 -999 3.409582 30.480086 10.208016
2006-04-20 07:32:00 51°13.722 2°55.707 -999 3.401404 30.401987 10.241725
2006-04-20 07:32:05 51°13.722 2°55.705 -999 3.394778 30.337075 10.241725
2006-04-20 07:32:10 51°13.721 2°55.704 -999 3.394778 30.337075 10.241725
2006-04-20 07:32:15 51°13.722 2°55.703 -999 3.393019 30.323329 10.275435
2006-04-20 07:32:20 51°13.723 2°55.704 -999 3.342402 29.828162 10.342853
2006-04-20 07:32:25 51°13.725 2°55.704 -999 3.40482 30.449925 10.443982
2006-04-20 07:32:30 51°13.727 2°55.704 -999 3.407615 30.480614 10.5114
2006-04-20 07:32:35 51°13.731 2°55.703 -999 3.421176 30.622628 10.578819
2006-04-20 07:32:40 51°13.734 2°55.702 -999 3.421176 30.622628 10.578819
2006-04-20 07:32:45 51°13.739 2°55.7 -999 3.427802 30.693646 10.679947
2006-04-20 07:32:50 51°13.744 2°55.698 -999 3.432668 30.751718 10.747366
2006-04-20 07:32:54 51°13.748 2°55.695 -999 3.439915 30.83126 10.781076
2006-04-20 07:32:59 51°13.753 2°55.69 -999 3.440847 30.843533 10.781076
2006-04-20 07:33:04 51°13.759 2°55.685 -999 3.436706 30.801605 10.814785
2006-04-20 07:33:09 51°13.765 2°55.68 -999 3.436706 30.801605 10.814785
2006-04-20 07:33:14 51°13.77 2°55.675 -999 3.435256 30.783442 10.814785
2006-04-20 07:33:19 51°13.776 2°55.67 -999 3.432875 30.757524 10.781076
2006-04-20 07:33:24 51°13.782 2°55.665 -999 3.428009 30.707673 10.814785
2006-04-20 07:33:29 51°13.787 2°55.66 -999 3.427285 30.698976 10.882204
2006-04-20 07:33:34 51°13.793 2°55.655 -999 3.427388 30.700753 10.915913
2006-04-20 07:33:39 51°13.799 2°55.65 -999 3.427388 30.700753 10.915913
2006-04-20 07:33:44 51°13.805 2°55.645 -999 3.429873 30.728437 10.949623
2006-04-20 07:33:49 51°13.811 2°55.64 -999 3.419831 30.624187 10.949623
2006-04-20 07:33:54 51°13.816 2°55.635 -999 3.392191 30.337274 10.983332
2006-04-20 07:33:58 51°13.821 2°55.631 -999 3.361033 30.023429 10.949623
2006-04-20 07:34:04 51°13.828 2°55.625 -999 3.333293 29.746079 10.949623
2006-04-20 07:34:09 51°13.834 2°55.62 -999 3.333293 29.746079 10.949623
2006-04-20 07:34:14 51°13.84 2°55.615 -999 3.313111 29.545188 10.983332
2006-04-20 07:34:19 51°13.846 2°55.611 -999 3.303485 29.447986 11.050751
2006-04-20 07:34:24 51°13.852 2°55.606 -999 3.300587 29.419378 11.11817
2006-04-20 07:34:30 51°13.859 2°55.601 -999 3.302554 29.441656 11.185589
2006-04-20 07:34:34 51°13.863 2°55.597 -999 3.307418 29.493277 11.320426
2006-04-20 07:34:39 51°13.869 2°55.593 -999 3.307418 29.493277 11.320426
2006-04-20 07:34:44 51°13.875 2°55.588 -999 3.316216 29.588103 11.421554
2006-04-20 07:34:49 51°13.881 2°55.584 -999 3.324496 29.678623 11.455264
2006-04-20 07:34:54 51°13.887 2°55.579 -999 3.332673 29.766752 11.556392
2006-04-20 07:34:59 51°13.893 2°55.575 -999 3.343748 29.883655 11.65752
2006-04-20 07:35:04 51°13.899 2°55.571 -999 3.357825 30.028958 11.758648
2006-04-20 07:35:09 51°13.906 2°55.566 -999 3.357825 30.028958 11.758648
2006-04-20 07:35:14 51°13.912 2°55.561 -999 3.361344 30.068973 11.859777
2006-04-20 07:35:19 51°13.92 2°55.556 -999 3.383185 30.29079 11.927195
2006-04-20 07:35:24 51°13.928 2°55.551 -999 3.39716 30.436225 12.028324
2006-04-20 07:35:29 51°13.936 2°55.546 -999 3.409583 30.565631 12.129452
2006-04-20 07:35:34 51°13.945 2°55.54 -999 3.422109 30.693941 12.196871
2006-04-20 07:35:39 51°13.954 2°55.534 -999 3.422109 30.693941 12.196871
2006-04-20 07:35:44 51°13.963 2°55.528 -999 3.433186 30.810937 12.23058
2006-04-20 07:35:49 51°13.973 2°55.521 -999 3.441986 30.903088 12.163161
2006-04-20 07:35:54 51°13.982 2°55.515 -999 3.45296 31.015456 12.129452
2006-04-20 07:35:59 51°13.992 2°55.509 -999 3.462485 31.110407 12.095742
2006-04-20 07:36:04 51°14.002 2°55.502 -999 3.470561 31.190941 12.163161
2006-04-20 07:36:09 51°14.012 2°55.495 -999 3.470561 31.190941 12.163161
2006-04-20 07:36:14 51°14.022 2°55.489 -999 3.479051 31.277931 12.196871
2006-04-20 07:36:19 51°14.033 2°55.482 -999 3.487437 31.365467 12.264289
2006-04-20 07:36:24 51°14.043 2°55.475 -999 3.49044 31.394679 12.331708
2006-04-20 07:36:29 51°14.053 2°55.468 -999 3.495306 31.442506 12.399127
2006-04-20 07:36:34 51°14.063 2°55.46 -999 3.499137 31.483077 12.432836
2006-04-20 07:36:39 51°14.074 2°55.453 -999 3.499137 31.483077 12.432836
2006-04-20 07:36:44 51°14.084 2°55.446 -999 3.501726 31.512016 12.399127
2006-04-20 07:36:49 51°14.095 2°55.439 -999 3.505246 31.547193 12.365418
2006-04-20 07:36:54 51°14.105 2°55.431 -999 3.504211 31.535305 12.297999
2006-04-20 07:36:59 51°14.116 2°55.424 -999 3.502554 31.51259 12.297999
2006-04-20 07:37:04 51°14.127 2°55.415 -999 3.500794 31.495007 12.264289
2006-04-20 07:37:09 51°14.138 2°55.406 -999 3.500794 31.495007 12.264289
2006-04-20 07:37:14 51°14.149 2°55.397 -999 3.495514 31.448417 12.196871
2006-04-20 07:37:19 51°14.16 2°55.387 -999 3.487334 31.366733 12.129452
2006-04-20 07:37:24 51°14.17 2°55.377 -999 3.476359 31.253361 12.062033
2006-04-20 07:37:29 51°14.181 2°55.366 -999 3.466419 31.151921 11.994614
2006-04-20 07:37:35 51°14.194 2°55.353 -999 3.457309 31.058798 11.960905
2006-04-20 07:37:40 51°14.204 2°55.341 -999 3.457309 31.058798 11.960905
2006-04-20 07:37:44 51°14.212 2°55.331 -999 3.451821 31.004106 11.927195
2006-04-20 07:37:50 51°14.224 2°55.316 -999 3.45089 30.994063 11.927195
2006-04-20 07:37:54 51°14.232 2°55.305 -999 3.448819 30.969646 11.893486
2006-04-20 07:38:00 51°14.244 2°55.289 -999 3.44592 30.940011 11.893486
2006-04-20 07:38:05 51°14.253 2°55.274 -999 3.44416 30.920968 11.893486
2006-04-20 07:38:10 51°14.262 2°55.26 -999 3.44416 30.920968 11.893486
2006-04-20 07:38:14 51°14.269 2°55.247 -999 3.443435 30.908466 11.859777
2006-04-20 07:38:20 51°14.28 2°55.229 -999 3.4424 30.895139 11.826067
2006-04-20 07:38:25 51°14.288 2°55.212 -999 3.440537 30.875831 11.826067
2006-04-20 07:38:30 51°14.297 2°55.196 -999 3.442089 30.894309 11.792358
2006-04-20 07:38:34 51°14.303 2°55.183 -999 3.445092 30.927228 11.758648
2006-04-20 07:38:40 51°14.313 2°55.164 -999 3.445092 30.927228 11.758648
2006-04-20 07:38:45 51°14.322 2°55.147 -999 3.450372 30.981336 11.724939
2006-04-20 07:38:50 51°14.33 2°55.13 -999 3.455755 31.032704 11.69123
2006-04-20 07:38:54 51°14.336 2°55.117 -999 3.462278 31.096187 11.65752
2006-04-20 07:38:58 51°14.343 2°55.103 -999 3.464038 31.11145 11.65752
2006-04-20 07:39:04 51°14.353 2°55.084 -999 3.470043 31.171308 11.623811
2006-04-20 07:39:09 51°14.362 2°55.068 -999 3.470043 31.171308 11.623811
2006-04-20 07:39:14 51°14.371 2°55.053 -999 3.47201 31.186352 11.623811
2006-04-20 07:39:19 51°14.381 2°55.038 -999 3.469836 31.163917 11.590101
2006-04-20 07:39:24 51°14.39 2°55.023 -999 3.471596 31.182984 11.590101
2006-04-20 07:39:30 51°14.402 2°55.006 -999 3.46849 31.148981 11.623811
2006-04-20 07:39:34 51°14.41 2°54.996 -999 3.472217 31.188416 11.65752
2006-04-20 07:39:39 51°14.421 2°54.983 -999 3.472217 31.188416 11.65752
2006-04-20 07:39:44 51°14.432 2°54.97 -999 3.481432 31.28335 11.724939
2006-04-20 07:39:49 51°14.443 2°54.958 -999 3.492304 31.395642 11.792358
2006-04-20 07:39:54 51°14.454 2°54.947 -999 3.504729 31.528918 11.893486
2006-04-20 07:39:59 51°14.465 2°54.935 -999 3.516429 31.658968 11.994614
2006-04-20 07:40:04 51°14.477 2°54.924 -999 3.528751 31.793854 12.095742
2006-04-20 07:40:09 51°14.488 2°54.914 -999 3.528751 31.793854 12.095742
2006-04-20 07:40:14 51°14.499 2°54.903 -999 3.53921 31.9079 12.196871
2006-04-20 07:40:19 51°14.511 2°54.892 -999 3.552258 32.050366 12.297999
2006-04-20 07:40:24 51°14.523 2°54.882 -999 3.567066 32.213048 12.331708
2006-04-20 07:40:29 51°14.534 2°54.871 -999 3.575765 32.318565 12.331708
2006-04-20 07:40:34 51°14.546 2°54.86 -999 3.586432 32.444818 12.196871
2006-04-20 07:40:39 51°14.557 2°54.849 -999 3.586432 32.444818 12.196871
2006-04-20 07:40:44 51°14.569 2°54.838 -999 3.593164 32.527674 12.129452
2006-04-20 07:40:49 51°14.582 2°54.826 -999 3.599482 32.604057 12.028324
2006-04-20 07:40:54 51°14.594 2°54.813 -999 3.607871 32.698984 11.960905
2006-04-20 07:40:59 51°14.607 2°54.801 -999 3.617399 32.81033 11.960905
2006-04-20 07:41:04 51°14.62 2°54.787 -999 3.624753 32.89987 11.960905
2006-04-20 07:41:09 51°14.633 2°54.773 -999 3.624753 32.89987 11.960905
2006-04-20 07:41:14 51°14.647 2°54.759 -999 3.636353 33.024297 11.960905
2006-04-20 07:41:19 51°14.661 2°54.745 -999 3.643085 33.09801 11.960905
2006-04-20 07:41:24 51°14.675 2°54.729 -999 3.647125 33.137205 11.960905
2006-04-20 07:41:29 51°14.689 2°54.714 -999 3.651785 33.187585 11.927195
2006-04-20 07:41:34 51°14.704 2°54.698 -999 3.655411 33.226693 11.927195
2006-04-20 07:41:39 51°14.718 2°54.682 -999 3.655411 33.226693 11.927195
2006-04-20 07:41:44 51°14.733 2°54.666 -999 3.659347 33.267318 11.893486
2006-04-20 07:41:49 51°14.748 2°54.651 -999 3.66235 33.294425 11.859777
2006-04-20 07:41:54 51°14.763 2°54.635 -999 3.667115 33.337702 11.859777
2006-04-20 07:41:59 51°14.778 2°54.619 -999 3.672294 33.385169 11.826067
2006-04-20 07:42:04 51°14.794 2°54.604 -999 3.676126 33.423121 11.792358
2006-04-20 07:42:09 51°14.81 2°54.59 -999 3.676126 33.423121 11.792358
2006-04-20 07:42:14 51°14.826 2°54.576 -999 3.68027 33.465046 11.758648
2006-04-20 07:42:19 51°14.843 2°54.561 -999 3.683481 33.493424 11.758648
2006-04-20 07:42:24 51°14.859 2°54.548 -999 3.683274 33.487209 11.724939
2006-04-20 07:42:29 51°14.875 2°54.534 -999 3.684517 33.498139 11.69123
2006-04-20 07:42:34 51°14.892 2°54.519 -999 3.686485 33.515582 11.65752
2006-04-20 07:42:39 51°14.908 2°54.505 -999 3.686485 33.515582 11.65752
2006-04-20 07:42:44 51°14.924 2°54.49 -999 3.688453 33.533023 11.556392
2006-04-20 07:42:49 51°14.94 2°54.475 -999 3.691767 33.566566 11.455264
2006-04-20 07:42:54 51°14.956 2°54.46 -999 3.691664 33.567169 11.286717
2006-04-20 07:42:59 51°14.971 2°54.444 -999 3.69125 33.563801 11.219298
2006-04-20 07:43:04 51°14.987 2°54.429 -999 3.693114 33.585975 11.08446
2006-04-20 07:43:09 51°15.002 2°54.413 -999 3.693114 33.585975 11.08446
2006-04-20 07:43:14 51°15.018 2°54.398 -999 3.693011 33.589883 11.017042
2006-04-20 07:43:19 51°15.033 2°54.382 -999 3.691146 33.575963 10.915913
2006-04-20 07:43:24 51°15.048 2°54.366 -999 3.692493 33.593729 10.814785
2006-04-20 07:43:29 51°15.064 2°54.351 -999 3.695911 33.635797 10.646238
2006-04-20 07:43:34 51°15.08 2°54.335 -999 3.699433 33.680596 10.477691
2006-04-20 07:43:39 51°15.095 2°54.32 -999 3.699433 33.680596 10.477691
2006-04-20 07:43:44 51°15.111 2°54.305 -999 3.70741 33.776417 10.342853
2006-04-20 07:43:49 51°15.128 2°54.291 -999 3.711657 33.836169 10.208016
2006-04-20 07:43:54 51°15.144 2°54.278 -999 3.715076 33.886738 10.174306
2006-04-20 07:43:59 51°15.161 2°54.265 -999 3.716008 33.912097 10.106888
2006-04-20 07:44:04 51°15.178 2°54.252 -999 3.722431 33.996663 10.106888
2006-04-20 07:44:08 51°15.191 2°54.242 -999 3.722431 33.996663 10.106888
2006-04-20 07:44:14 51°15.212 2°54.226 -999 3.72699 34.064893 10.039469
2006-04-20 07:44:19 51°15.228 2°54.212 -999 3.728751 34.112321 10.073178
2006-04-20 07:44:24 51°15.245 2°54.198 -999 3.728026 34.127724 10.106888
2006-04-20 07:44:29 51°15.261 2°54.184 -999 3.730202 34.175283 10.140597
2006-04-20 07:44:34 51°15.277 2°54.169 -999 3.729374 34.188 10.174306
2006-04-20 07:44:39 51°15.293 2°54.153 -999 3.729374 34.188 10.174306
2006-04-20 07:44:44 51°15.308 2°54.137 -999 3.728649 34.203491 10.208016
2006-04-20 07:44:49 51°15.324 2°54.121 -999 3.729064 34.230654 10.275435
2006-04-20 07:44:54 51°15.339 2°54.105 -999 3.727717 34.235586 10.882204
2006-04-20 07:44:59 51°15.355 2°54.089 -999 3.728443 34.286448 10.578819
2006-04-20 07:45:04 51°15.37 2°54.074 -999 3.727718 34.308896 10.376563
2006-04-20 07:45:09 51°15.387 2°54.059 -999 3.727718 34.308896 10.376563
2006-04-20 07:45:14 51°15.402 2°54.045 -999 3.725025 34.296662 10.241725
2006-04-20 07:45:19 51°15.418 2°54.031 -999 3.722124 34.265212 10.106888
2006-04-20 07:45:24 51°15.435 2°54.017 -999 3.719223 34.222687 10.039469
2006-04-20 07:45:29 51°15.451 2°54.003 -999 3.716944 34.18146 10.005759
2006-04-20 07:45:34 51°15.467 2°53.989 -999 3.714458 34.137311 10.005759
2006-04-20 07:45:39 51°15.483 2°53.976 -999 3.714458 34.137311 10.005759
2006-04-20 07:45:44 51°15.498 2°53.961 -999 3.711868 34.098088 10.039469
2006-04-20 07:45:49 51°15.514 2°53.947 -999 3.710417 34.073935 10.073178
2006-04-20 07:45:54 51°15.53 2°53.932 -999 3.709899 34.061867 10.106888
2006-04-20 07:45:59 51°15.546 2°53.917 -999 3.708242 34.039848 10.140597
2006-04-20 07:46:04 51°15.561 2°53.902 -999 3.709071 34.047473 10.208016
2006-04-20 07:46:09 51°15.577 2°53.888 -999 3.709071 34.047473 10.208016
2006-04-20 07:46:14 51°15.592 2°53.873 -999 3.70876 34.044297 10.275435
2006-04-20 07:46:19 51°15.608 2°53.859 -999 3.709899 34.055097 10.309144
2006-04-20 07:46:24 51°15.624 2°53.846 -999 3.710935 34.067378 10.342853
2006-04-20 07:46:29 51°15.64 2°53.832 -999 3.709796 34.058269 10.376563
2006-04-20 07:46:34 51°15.656 2°53.819 -999 3.71021 34.065044 10.376563
2006-04-20 07:46:39 51°15.672 2°53.806 -999 3.71021 34.065044 10.376563
2006-04-20 07:46:44 51°15.688 2°53.793 -999 3.709174 34.054454 10.342853
2006-04-20 07:46:49 51°15.705 2°53.78 -999 3.707828 34.040687 10.342853
2006-04-20 07:46:54 51°15.721 2°53.767 -999 3.707724 34.037937 10.342853
2006-04-20 07:46:59 51°15.737 2°53.754 -999 3.707724 34.037937 10.342853
2006-04-20 07:47:04 51°15.753 2°53.74 -999 3.706481 34.024385 10.342853
2006-04-20 07:47:09 51°15.77 2°53.727 -999 3.706481 34.024385 10.342853
2006-04-20 07:47:14 51°15.786 2°53.713 -999 3.707827 34.03815 10.342853
2006-04-20 07:47:19 51°15.802 2°53.7 -999 3.70762 34.035187 10.342853
2006-04-20 07:47:24 51°15.817 2°53.685 -999 3.709588 34.055305 10.342853
2006-04-20 07:47:29 51°15.834 2°53.671 -999 3.708449 34.044503 10.342853
2006-04-20 07:47:34 51°15.85 2°53.657 -999 3.708863 34.047047 10.342853
2006-04-20 07:47:39 51°15.866 2°53.644 -999 3.708863 34.047047 10.342853
2006-04-20 07:47:44 51°15.882 2°53.631 -999 3.709588 34.054459 10.342853
2006-04-20 07:47:49 51°15.898 2°53.618 -999 3.707517 34.033282 10.376563
2006-04-20 07:47:54 51°15.915 2°53.604 -999 3.71021 34.060812 10.376563
2006-04-20 07:47:59 51°15.931 2°53.591 -999 3.71021 34.060812 10.410272
2006-04-20 07:48:04 51°15.947 2°53.579 -999 3.710314 34.060179 10.410272
2006-04-20 07:48:09 51°15.963 2°53.566 -999 3.710314 34.060179 10.410272
2006-04-20 07:48:14 51°15.979 2°53.553 -999 3.711246 34.066324 10.443982
2006-04-20 07:48:19 51°15.996 2°53.54 -999 3.71425 34.08687 10.477691
2006-04-20 07:48:24 51°16.012 2°53.526 -999 3.712696 34.063379 10.578819
2006-04-20 07:48:29 51°16.027 2°53.514 -999 3.715493 34.086878 10.612529
2006-04-20 07:48:34 51°16.043 2°53.5 -999 3.71456 34.07397 10.646238
2006-04-20 07:48:39 51°16.059 2°53.486 -999 3.71456 34.07397 10.646238
2006-04-20 07:48:44 51°16.075 2°53.472 -999 3.714768 34.074395 10.679947
2006-04-20 07:48:49 51°16.09 2°53.458 -999 3.712385 34.048371 10.747366
2006-04-20 07:48:54 51°16.106 2°53.444 -999 3.71052 34.02764 10.814785
2006-04-20 07:48:59 51°16.122 2°53.429 -999 3.712178 34.042876 10.848494
2006-04-20 07:49:04 51°16.137 2°53.415 -999 3.710002 34.018131 10.915913
2006-04-20 07:49:09 51°16.153 2°53.4 -999 3.710002 34.018131 10.915913
2006-04-20 07:49:14 51°16.169 2°53.385 -999 3.709795 34.013484 10.983332
2006-04-20 07:49:19 51°16.185 2°53.371 -999 3.708656 33.999321 11.050751
2006-04-20 07:49:24 51°16.2 2°53.357 -999 3.711142 34.02048 11.08446
2006-04-20 07:49:29 51°16.217 2°53.343 -999 3.708241 33.988347 11.11817
2006-04-20 07:49:34 51°16.233 2°53.33 -999 3.710417 34.010548 11.151879
2006-04-20 07:49:39 51°16.249 2°53.317 -999 3.707723 33.984747 11.219298
2006-04-20 07:49:44 51°16.265 2°53.304 -999 3.707723 33.984747 11.219298
2006-04-20 07:49:49 51°16.282 2°53.291 -999 3.709691 34.008208 11.219298
2006-04-20 07:49:54 51°16.298 2°53.278 -999 3.709795 34.013484 11.253007
2006-04-20 07:49:59 51°16.314 2°53.265 -999 3.710106 34.019188 11.320426
2006-04-20 07:50:04 51°16.331 2°53.252 -999 3.71021 34.020246 11.387845
2006-04-20 07:50:09 51°16.347 2°53.239 -999 3.71021 34.020246 11.387845
2006-04-20 07:50:14 51°16.363 2°53.226 -999 3.710002 34.018131 11.522683
2006-04-20 07:50:19 51°16.379 2°53.212 -999 3.708034 33.99888 11.623811
2006-04-20 07:50:24 51°16.395 2°53.198 -999 3.707827 33.996765 11.623811
2006-04-20 07:50:29 51°16.412 2°53.184 -999 3.71166 34.035053 11.623811
2006-04-20 07:50:34 51°16.428 2°53.17 -999 3.709692 34.01327 11.556392
2006-04-20 07:50:39 51°16.444 2°53.157 -999 3.709692 34.01327 11.556392
2006-04-20 07:50:44 51°16.46 2°53.143 -999 3.708448 33.99805 11.488973
2006-04-20 07:50:49 51°16.476 2°53.129 -999 3.70648 33.975431 11.455264
2006-04-20 07:50:54 51°16.492 2°53.115 -999 3.710313 34.012021 11.455264
2006-04-20 07:50:59 51°16.508 2°53.101 -999 3.709381 33.999976 11.455264
2006-04-20 07:51:04 51°16.524 2°53.088 -999 3.710417 34.009705 11.387845
2006-04-20 07:51:09 51°16.541 2°53.074 -999 3.710417 34.009705 11.387845
2006-04-20 07:51:14 51°16.557 2°53.061 -999 3.712281 34.030424 11.522683
2006-04-20 07:51:19 51°16.574 2°53.049 -999 3.709795 34.010953 11.792358
2006-04-20 07:51:24 51°16.59 2°53.036 -999 3.711556 34.035684 11.859777
2006-04-20 07:51:29 51°16.607 2°53.023 -999 3.709484 34.020439 11.893486
2006-04-20 07:51:34 51°16.623 2°53.01 -999 3.708656 34.015353 11.994614
2006-04-20 07:51:38 51°16.636 2°53 -999 3.708656 34.015353 11.994614
2006-04-20 07:51:44 51°16.656 2°52.983 -999 3.71021 34.034601 12.028324
2006-04-20 07:51:49 51°16.672 2°52.97 -999 3.709899 34.033117 11.927195
2006-04-20 07:51:54 51°16.688 2°52.956 -999 3.707827 34.0128 11.893486
2006-04-20 07:51:59 51°16.705 2°52.942 -999 3.70907 34.026341 11.859777
2006-04-20 07:52:04 51°16.721 2°52.928 -999 3.70617 33.995872 11.792358
2006-04-20 07:52:09 51°16.737 2°52.915 -999 3.70617 33.995872 11.792358
2006-04-20 07:52:14 51°16.753 2°52.901 -999 3.708759 34.021478 11.69123
2006-04-20 07:52:19 51°16.769 2°52.887 -999 3.708656 34.018731 11.590101
2006-04-20 07:52:24 51°16.785 2°52.873 -999 3.710106 34.032699 11.522683
2006-04-20 07:52:29 51°16.801 2°52.861 -999 3.711038 34.043066 11.455264
2006-04-20 07:52:34 51°16.817 2°52.848 -999 3.711038 34.045601 11.387845
2006-04-20 07:52:39 51°16.834 2°52.836 -999 3.711038 34.045601 11.387845
2006-04-20 07:52:44 51°16.85 2°52.824 -999 3.711971 34.057662 11.354136
2006-04-20 07:52:49 51°16.866 2°52.812 -999 3.715182 34.094705 11.354136
2006-04-20 07:52:54 51°16.883 2°52.8 -999 3.714561 34.093433 11.320426
2006-04-20 07:52:59 51°16.899 2°52.789 -999 3.713421 34.087713 11.354136
2006-04-20 07:53:04 51°16.916 2°52.778 -999 3.716633 34.126474 11.455264
2006-04-20 07:53:09 51°16.933 2°52.769 -999 3.716633 34.126474 11.455264
2006-04-20 07:53:14 51°16.951 2°52.76 -999 3.715908 34.126691 11.590101
2006-04-20 07:53:19 51°16.968 2°52.752 -999 3.716218 34.132414 11.623811
2006-04-20 07:53:24 51°16.986 2°52.744 -999 3.717772 34.151702 11.65752
2006-04-20 07:53:29 51°17.004 2°52.737 -999 3.717358 34.149161 11.65752
2006-04-20 07:53:34 51°17.021 2°52.73 -999 3.717876 34.155309 11.623811
2006-04-20 07:53:39 51°17.039 2°52.725 -999 3.717876 34.155309 11.623811
2006-04-20 07:53:44 51°17.057 2°52.72 -999 3.716633 34.145138 11.556392
2006-04-20 07:53:49 51°17.076 2°52.715 -999 3.717669 34.154887 11.522683
2006-04-20 07:53:54 51°17.093 2°52.712 -999 3.715286 34.129664 11.455264
2006-04-20 07:53:59 51°17.112 2°52.708 -999 3.716218 34.136656 11.421554
2006-04-20 07:54:04 51°17.13 2°52.706 -999 3.717462 34.148523 11.387845
2006-04-20 07:54:09 51°17.148 2°52.702 -999 3.717462 34.148523 11.387845
2006-04-20 07:54:14 51°17.166 2°52.7 -999 3.717565 34.150432 11.387845
2006-04-20 07:54:19 51°17.184 2°52.698 -999 3.717358 34.15001 11.354136
2006-04-20 07:54:24 51°17.202 2°52.696 -999 3.717151 34.149588 11.387845
2006-04-20 07:54:29 51°17.22 2°52.693 -999 3.718498 34.166764 11.387845
2006-04-20 07:54:34 51°17.238 2°52.691 -999 3.718083 34.165922 11.387845
2006-04-20 07:54:39 51°17.256 2°52.687 -999 3.718083 34.165922 11.387845
2006-04-20 07:54:44 51°17.275 2°52.684 -999 3.718705 34.172282 11.421554
2006-04-20 07:54:49 51°17.293 2°52.68 -999 3.718291 34.17484 11.488973
2006-04-20 07:54:54 51°17.311 2°52.676 -999 3.719119 34.190125 11.522683
2006-04-20 07:54:59 51°17.328 2°52.67 -999 3.721502 34.223884 11.556392
2006-04-20 07:55:04 51°17.347 2°52.665 -999 3.720673 34.221358 11.556392
2006-04-20 07:55:09 51°17.364 2°52.66 -999 3.720673 34.221358 11.556392
2006-04-20 07:55:14 51°17.383 2°52.655 -999 3.721709 34.239639 11.556392
2006-04-20 07:55:19 51°17.4 2°52.65 -999 3.721502 34.243484 11.556392
2006-04-20 07:55:24 51°17.419 2°52.646 -999 3.721917 34.250289 11.522683
2006-04-20 07:55:29 51°17.436 2°52.643 -999 3.690633 33.934964 11.556392
2006-04-20 07:55:34 51°17.455 2°52.638 -999 3.71912 34.231855 11.556392
2006-04-20 07:55:39 51°17.473 2°52.633 -999 3.71912 34.231855 11.556392
2006-04-20 07:55:44 51°17.491 2°52.628 -999 3.718706 34.231019 11.556392
2006-04-20 07:55:49 51°17.509 2°52.623 -999 3.719016 34.239323 11.556392
2006-04-20 07:55:54 51°17.526 2°52.619 -999 3.718084 34.235736 11.590101
2006-04-20 07:55:59 51°17.544 2°52.614 -999 3.719845 34.260626 11.623811
2006-04-20 07:56:04 51°17.562 2°52.609 -999 3.719949 34.266814 11.65752
2006-04-20 07:56:09 51°17.58 2°52.605 -999 3.719949 34.266814 11.65752
2006-04-20 07:56:14 51°17.598 2°52.602 -999 3.724196 34.31638 11.69123
2006-04-20 07:56:19 51°17.616 2°52.6 -999 3.724611 34.325768 11.65752
2006-04-20 07:56:24 51°17.634 2°52.597 -999 3.723989 34.325382 11.65752
2006-04-20 07:56:29 51°17.653 2°52.596 -999 3.723575 34.312568 11.623811
2006-04-20 07:56:34 51°17.671 2°52.595 -999 3.725439 34.325714 11.623811
2006-04-20 07:56:39 51°17.689 2°52.594 -999 3.725439 34.325714 11.623811
2006-04-20 07:56:44 51°17.707 2°52.593 -999 3.722228 34.303025 11.65752
2006-04-20 07:56:48 51°17.721 2°52.591 -999 3.723989 34.327095 11.623811
2006-04-20 07:56:54 51°17.743 2°52.588 -999 3.722746 34.31947 11.623811
2006-04-20 07:56:59 51°17.761 2°52.584 -999 3.722435 34.317992 11.623811
2006-04-20 07:57:04 51°17.779 2°52.581 -999 3.723886 34.332884 11.590101
2006-04-20 07:57:09 51°17.797 2°52.576 -999 3.723886 34.332884 11.590101
2006-04-20 07:57:14 51°17.815 2°52.573 -999 3.7214 34.311636 11.590101
2006-04-20 07:57:19 51°17.833 2°52.57 -999 3.722746 34.33232 11.590101
2006-04-20 07:57:24 51°17.851 2°52.568 -999 3.722643 34.336399 11.623811
2006-04-20 07:57:29 51°17.869 2°52.567 -999 3.720468 34.321765 11.623811
2006-04-20 07:57:34 51°17.887 2°52.566 -999 3.721814 34.342463 11.623811
2006-04-20 07:57:39 51°17.905 2°52.567 -999 3.721814 34.342463 11.623811
2006-04-20 07:57:44 51°17.923 2°52.569 -999 3.719328 34.328919 11.65752
2006-04-20 07:57:49 51°17.941 2°52.572 -999 3.716428 34.308536 11.69123
2006-04-20 07:57:54 51°17.959 2°52.576 -999 3.717878 34.338038 11.724939
2006-04-20 07:57:59 51°17.977 2°52.58 -999 3.717775 34.344703 11.69123
2006-04-20 07:58:04 51°17.995 2°52.584 -999 3.715599 34.327475 11.69123
2006-04-20 07:58:09 51°18.013 2°52.589 -999 3.715599 34.327475 11.69123
2006-04-20 07:58:14 51°18.031 2°52.594 -999 3.7156 34.333488 11.69123
2006-04-20 07:58:19 51°18.048 2°52.6 -999 3.715185 34.335238 11.65752
2006-04-20 07:58:24 51°18.066 2°52.605 -999 3.713528 34.324193 11.65752
2006-04-20 07:58:29 51°18.083 2°52.609 -999 3.712803 34.322744 11.623811
2006-04-20 07:58:34 51°18.101 2°52.613 -999 3.710524 34.308732 11.623811
2006-04-20 07:58:39 51°18.119 2°52.619 -999 3.710524 34.308732 11.623811
2006-04-20 07:58:44 51°18.137 2°52.625 -999 3.71011 34.309621 11.65752
2006-04-20 07:58:49 51°18.154 2°52.633 -999 3.71011 34.3122 11.623811
2006-04-20 07:58:54 51°18.171 2°52.642 -999 3.709488 34.308377 11.623811
2006-04-20 07:58:59 51°18.188 2°52.652 -999 3.707106 34.282121 11.69123
2006-04-20 07:59:04 51°18.204 2°52.662 -999 3.706898 34.277412 11.724939
2006-04-20 07:59:09 51°18.22 2°52.673 -999 3.706898 34.277412 11.724939
2006-04-20 07:59:14 51°18.237 2°52.685 -999 3.705448 34.260762 11.758648
2006-04-20 07:59:19 51°18.252 2°52.698 -999 3.704101 34.248613 11.792358
2006-04-20 07:59:24 51°18.267 2°52.713 -999 3.703376 34.242006 11.826067
2006-04-20 07:59:29 51°18.282 2°52.73 -999 3.703169 34.239015 11.859777
2006-04-20 07:59:34 51°18.295 2°52.747 -999 3.702548 34.231759 11.893486
2006-04-20 07:59:39 51°18.309 2°52.765 -999 3.702548 34.231759 11.893486
2006-04-20 07:59:44 51°18.322 2°52.784 -999 3.700372 34.214507 11.927195
2006-04-20 07:59:49 51°18.335 2°52.803 -999 3.70058 34.220927 11.927195
2006-04-20 07:59:54 51°18.347 2°52.823 -999 3.700269 34.213441 11.994614
2006-04-20 07:59:59 51°18.359 2°52.844 -999 3.69944 34.203195 11.994614
2006-04-20 08:00:04 51°18.37 2°52.865 -999 3.698922 34.203004 12.028324
2006-04-20 08:00:10 51°18.383 2°52.891 -999 3.697679 34.193633 12.062033
2006-04-20 08:00:14 51°18.392 2°52.909 -999 3.697679 34.193633 12.062033
2006-04-20 08:00:19 51°18.403 2°52.93 -999 3.695297 34.168248 12.095742
2006-04-20 08:00:24 51°18.414 2°52.952 -999 3.69395 34.150962 12.163161
2006-04-20 08:00:29 51°18.424 2°52.974 -999 3.693639 34.144341 12.196871
2006-04-20 08:00:34 51°18.435 2°52.997 -999 3.69136 34.123452 12.297999
2006-04-20 08:00:39 51°18.445 2°53.02 -999 3.69136 34.123452 12.297999
2006-04-20 08:00:44 51°18.455 2°53.043 -999 3.689081 34.099999 12.297999
2006-04-20 08:00:49 51°18.463 2°53.068 -999 3.687631 34.085076 12.331708
2006-04-20 08:00:54 51°18.471 2°53.093 -999 3.686492 34.073352 12.365418
2006-04-20 08:01:00 51°18.481 2°53.123 -999 3.686285 34.069513 12.365418
2006-04-20 08:01:04 51°18.487 2°53.142 -999 3.685767 34.061624 12.399127
2006-04-20 08:01:09 51°18.494 2°53.168 -999 3.685767 34.061624 12.399127
2006-04-20 08:01:14 51°18.5 2°53.193 -999 3.685456 34.055015 12.399127
2006-04-20 08:01:19 51°18.507 2°53.219 -999 3.684109 34.036901 12.365418
2006-04-20 08:01:24 51°18.512 2°53.245 -999 3.683902 34.030509 12.331708
2006-04-20 08:01:29 51°18.518 2°53.271 -999 3.684523 34.034344 12.297999
2006-04-20 08:01:34 51°18.524 2°53.297 -999 3.681623 34.001968 12.297999
2006-04-20 08:01:39 51°18.529 2°53.323 -999 3.681623 34.001968 12.297999
2006-04-20 08:01:44 51°18.535 2°53.349 -999 3.679448 33.977904 12.331708
2006-04-20 08:01:49 51°18.541 2°53.375 -999 3.67748 33.955974 12.399127
2006-04-20 08:01:54 51°18.548 2°53.4 -999 3.676651 33.945758 12.466546
2006-04-20 08:01:59 51°18.555 2°53.426 -999 3.676237 33.94065 12.567674
2006-04-20 08:02:04 51°18.562 2°53.451 -999 3.674372 33.921491 12.668802
2006-04-20 08:02:09 51°18.57 2°53.476 -999 3.671679 33.891273 12.702512
2006-04-20 08:02:14 51°18.578 2°53.5 -999 3.671679 33.891273 12.702512
2006-04-20 08:02:19 51°18.586 2°53.525 -999 3.670125 33.871921 12.702512
2006-04-20 08:02:24 51°18.594 2°53.55 -999 3.669193 33.858956 12.668802
2006-04-20 08:02:29 51°18.602 2°53.574 -999 3.668054 33.84302 12.668802
2006-04-20 08:02:34 51°18.609 2°53.599 -999 3.666085 33.818582 12.635093
2006-04-20 08:02:39 51°18.617 2°53.624 -999 3.666085 33.818582 12.635093
2006-04-20 08:02:44 51°18.625 2°53.649 -999 3.664842 33.800749 12.635093
2006-04-20 08:02:49 51°18.632 2°53.674 -999 3.664739 33.79546 12.601383
2006-04-20 08:02:54 51°18.639 2°53.699 -999 3.663599 33.777854 12.567674
2006-04-20 08:02:59 51°18.646 2°53.724 -999 3.664014 33.775351 12.533965
2006-04-20 08:03:04 51°18.653 2°53.75 -999 3.662874 33.759443 12.533965
2006-04-20 08:03:09 51°18.661 2°53.775 -999 3.662874 33.759443 12.533965
2006-04-20 08:03:14 51°18.668 2°53.8 -999 3.661838 33.74629 12.601383
2006-04-20 08:03:19 51°18.675 2°53.825 -999 3.66101 33.736948 12.635093
2006-04-20 08:03:24 51°18.683 2°53.85 -999 3.661424 33.741197 12.668802
2006-04-20 08:03:29 51°18.691 2°53.874 -999 3.660285 33.731199 12.702512
2006-04-20 08:03:34 51°18.699 2°53.899 -999 3.660285 33.731199 12.702512
2006-04-20 08:03:39 51°18.707 2°53.923 -999 3.658938 33.71739 12.702512
2006-04-20 08:03:44 51°18.715 2°53.948 -999 3.658938 33.71739 12.702512
2006-04-20 08:03:49 51°18.722 2°53.973 -999 3.656659 33.69234 12.736221
2006-04-20 08:03:54 51°18.73 2°53.998 -999 3.654795 33.669859 12.702512
2006-04-20 08:03:59 51°18.737 2°54.024 -999 3.653656 33.653976 12.668802
2006-04-20 08:04:04 51°18.745 2°54.049 -999 3.652931 33.643183 12.668802
2006-04-20 08:04:10 51°18.753 2°54.079 -999 3.652931 33.643183 12.668802
2006-04-20 08:04:14 51°18.759 2°54.099 -999 3.651791 33.628147 12.668802
2006-04-20 08:04:19 51°18.767 2°54.124 -999 3.649823 33.605466 12.736221
2006-04-20 08:04:24 51°18.774 2°54.149 -999 3.647959 33.584689 12.76993
2006-04-20 08:04:29 51°18.781 2°54.175 -999 3.64713 33.577039 12.837349
2006-04-20 08:04:34 51°18.788 2°54.2 -999 3.644541 33.550517 12.837349
2006-04-20 08:04:39 51°18.795 2°54.225 -999 3.644541 33.550517 12.837349
2006-04-20 08:04:44 51°18.803 2°54.25 -999 3.64423 33.548172 12.871059
2006-04-20 08:04:49 51°18.81 2°54.275 -999 3.642573 33.530362 12.904768
2006-04-20 08:04:54 51°18.818 2°54.3 -999 3.641019 33.515288 12.904768
2006-04-20 08:04:59 51°18.825 2°54.325 -999 3.641226 33.516572 12.904768
2006-04-20 08:05:04 51°18.833 2°54.35 -999 3.640087 33.503232 12.904768
2006-04-20 08:05:09 51°18.841 2°54.375 -999 3.640087 33.503232 12.904768
2006-04-20 08:05:14 51°18.848 2°54.4 -999 3.637601 33.476944 12.904768
2006-04-20 08:05:19 51°18.856 2°54.425 -999 3.635633 33.454291 12.904768
2006-04-20 08:05:24 51°18.863 2°54.45 -999 3.635633 33.451785 12.904768
2006-04-20 08:05:29 51°18.871 2°54.475 -999 3.634701 33.440575 12.904768
2006-04-20 08:05:34 51°18.878 2°54.5 -999 3.633355 33.425125 12.871059
2006-04-20 08:05:40 51°18.887 2°54.53 -999 3.632837 33.417323 12.871059
2006-04-20 08:05:44 51°18.894 2°54.549 -999 3.632837 33.417323 12.871059
2006-04-20 08:05:49 51°18.902 2°54.574 -999 3.632423 33.41225 12.871059
2006-04-20 08:05:54 51°18.909 2°54.599 -999 3.630765 33.392794 12.837349
2006-04-20 08:05:59 51°18.916 2°54.624 -999 3.632215 33.405128 12.837349
2006-04-20 08:06:04 51°18.924 2°54.649 -999 3.63263 33.406033 12.837349
2006-04-20 08:06:09 51°18.931 2°54.674 -999 3.63263 33.406033 12.837349
2006-04-20 08:06:14 51°18.938 2°54.699 -999 3.633355 33.410115 12.837349
2006-04-20 08:06:19 51°18.946 2°54.724 -999 3.634701 33.420554 12.837349
2006-04-20 08:06:24 51°18.954 2°54.748 -999 3.635529 33.424027 12.837349
2006-04-20 08:06:29 51°18.961 2°54.773 -999 3.633769 33.402687 12.837349
2006-04-20 08:06:34 51°18.969 2°54.798 -999 3.633769 33.401021 12.871059
2006-04-20 08:06:39 51°18.977 2°54.822 -999 3.633769 33.401021 12.871059
2006-04-20 08:06:44 51°18.984 2°54.847 -999 3.632215 33.386801 12.904768
2006-04-20 08:06:49 51°18.991 2°54.872 -999 3.632112 33.386574 12.972187
2006-04-20 08:06:54 51°18.999 2°54.897 -999 3.631594 33.382112 13.005896
2006-04-20 08:06:59 51°19.005 2°54.923 -999 3.629212 33.359419 13.039606
2006-04-20 08:07:04 51°19.013 2°54.948 -999 3.627865 33.345652 13.039606
2006-04-20 08:07:09 51°19.02 2°54.973 -999 3.627865 33.345652 13.039606
2006-04-20 08:07:14 51°19.027 2°54.998 -999 3.625483 33.320467 13.039606
2006-04-20 08:07:19 51°19.034 2°55.023 -999 3.623826 33.303527 13.073315
2006-04-20 08:07:24 51°19.042 2°55.047 -999 3.623101 33.295286 13.073315
2006-04-20 08:07:29 51°19.05 2°55.071 -999 3.622376 33.286216 13.073315
2006-04-20 08:07:34 51°19.057 2°55.096 -999 3.621029 33.272455 13.039606
2006-04-20 08:07:39 51°19.065 2°55.12 -999 3.621029 33.272455 13.039606
2006-04-20 08:07:44 51°19.073 2°55.145 -999 3.618337 33.243278 13.039606
2006-04-20 08:07:49 51°19.081 2°55.169 -999 3.61554 33.213878 13.073315
2006-04-20 08:07:54 51°19.089 2°55.193 -999 3.616265 33.219628 13.107024
2006-04-20 08:07:59 51°19.097 2°55.218 -999 3.614194 33.195984 13.107024
2006-04-20 08:08:04 51°19.104 2°55.243 -999 3.611708 33.169768 13.140734
2006-04-20 08:08:09 51°19.112 2°55.267 -999 3.611708 33.169768 13.140734
2006-04-20 08:08:14 51°19.119 2°55.293 -999 3.609326 33.143788 13.140734
2006-04-20 08:08:19 51°19.126 2°55.317 -999 3.60798 33.127562 13.174443
2006-04-20 08:08:25 51°19.135 2°55.347 -999 3.606219 33.10546 13.140734
2006-04-20 08:08:29 51°19.14 2°55.368 -999 3.604976 33.089475 13.140734
2006-04-20 08:08:34 51°19.147 2°55.393 -999 3.604355 33.081484 13.174443
2006-04-20 08:08:39 51°19.154 2°55.418 -999 3.604355 33.081484 13.174443
2006-04-20 08:08:44 51°19.161 2°55.443 -999 3.600316 33.038618 13.208153
2006-04-20 08:08:49 51°19.168 2°55.468 -999 3.597519 33.009266 13.208153
2006-04-20 08:08:54 51°19.176 2°55.493 -999 3.595862 32.989073 13.241862
2006-04-20 08:08:59 51°19.183 2°55.517 -999 3.59172 32.947642 13.275571
2006-04-20 08:09:04 51°19.191 2°55.542 -999 3.588924 32.919126 13.275571
2006-04-20 08:09:09 51°19.198 2°55.567 -999 3.586335 32.892726 13.309281
2006-04-20 08:09:14 51°19.206 2°55.592 -999 3.586335 32.892726 13.309281
2006-04-20 08:09:19 51°19.213 2°55.617 -999 3.585713 32.885571 13.309281
2006-04-20 08:09:24 51°19.22 2°55.642 -999 3.583746 32.866329 13.309281
2006-04-20 08:09:29 51°19.227 2°55.667 -999 3.580949 32.838641 13.309281
2006-04-20 08:09:34 51°19.234 2°55.692 -999 3.580121 32.829378 13.309281
2006-04-20 08:09:39 51°19.242 2°55.717 -999 3.580121 32.829378 13.309281
2006-04-20 08:09:44 51°19.249 2°55.743 -999 3.578775 32.813203 13.275571
2006-04-20 08:09:49 51°19.256 2°55.767 -999 3.57981 32.820488 13.275571
2006-04-20 08:09:54 51°19.263 2°55.792 -999 3.57805 32.800095 13.275571
2006-04-20 08:09:59 51°19.271 2°55.817 -999 3.576703 32.784744 13.275571
2006-04-20 08:10:04 51°19.278 2°55.842 -999 3.577428 32.790498 13.275571
2006-04-20 08:10:09 51°19.286 2°55.867 -999 3.577428 32.790498 13.275571
2006-04-20 08:10:14 51°19.293 2°55.892 -999 3.57836 32.798361 13.275571
2006-04-20 08:10:19 51°19.3 2°55.917 -999 3.576393 32.776682 13.275571
2006-04-20 08:10:24 51°19.307 2°55.941 -999 3.576185 32.772124 13.241862
2006-04-20 08:10:29 51°19.314 2°55.967 -999 3.575253 32.757737 13.241862
2006-04-20 08:10:34 51°19.322 2°55.992 -999 3.574736 32.748388 13.241862
2006-04-20 08:10:39 51°19.329 2°56.016 -999 3.574736 32.748388 13.241862
2006-04-20 08:10:44 51°19.337 2°56.041 -999 3.573182 32.729313 13.241862
2006-04-20 08:10:50 51°19.346 2°56.071 -999 3.574425 32.740336 13.241862
2006-04-20 08:10:54 51°19.352 2°56.09 -999 3.573182 32.72687 13.241862
2006-04-20 08:10:59 51°19.359 2°56.115 -999 3.572871 32.723707 13.241862
2006-04-20 08:11:04 51°19.366 2°56.14 -999 3.572871 32.726964 13.275571
2006-04-20 08:11:09 51°19.372 2°56.165 -999 3.572871 32.726964 13.275571
2006-04-20 08:11:14 51°19.379 2°56.19 -999 3.573596 32.735974 13.275571
2006-04-20 08:11:19 51°19.386 2°56.216 -999 3.576185 32.765599 13.275571
2006-04-20 08:11:24 51°19.393 2°56.241 -999 3.575046 32.753997 13.275571
2006-04-20 08:11:29 51°19.4 2°56.266 -999 3.57836 32.787748 13.275571
2006-04-20 08:11:34 51°19.407 2°56.29 -999 3.577014 32.773221 13.241862
2006-04-20 08:11:39 51°19.414 2°56.315 -999 3.577014 32.773221 13.241862
2006-04-20 08:11:44 51°19.422 2°56.34 -999 3.576496 32.764685 13.241862
2006-04-20 08:11:49 51°19.43 2°56.364 -999 3.576289 32.7585 13.241862
2006-04-20 08:11:54 51°19.438 2°56.388 -999 3.575564 32.748675 13.309281
2006-04-20 08:11:59 51°19.446 2°56.412 -999 3.572146 32.712258 13.34299
2006-04-20 08:12:04 51°19.454 2°56.436 -999 3.570282 32.694912 13.410409
2006-04-20 08:12:09 51°19.462 2°56.46 -999 3.570282 32.694912 13.410409
2006-04-20 08:12:14 51°19.47 2°56.484 -999 3.565726 32.650975 13.410409
2006-04-20 08:12:19 51°19.478 2°56.508 -999 3.565001 32.643598 13.444118
2006-04-20 08:12:24 51°19.485 2°56.533 -999 3.562101 32.609223 13.477828
2006-04-20 08:12:29 51°19.492 2°56.558 -999 3.559927 32.582237 13.511537
2006-04-20 08:12:34 51°19.499 2°56.583 -999 3.555784 32.535253 13.511537
2006-04-20 08:12:39 51°19.506 2°56.608 -999 3.555059 32.522222 13.545247
2006-04-20 08:12:44 51°19.514 2°56.632 -999 3.555059 32.522222 13.545247
2006-04-20 08:12:49 51°19.521 2°56.657 -999 3.551746 32.483691 13.578956
2006-04-20 08:12:54 51°19.529 2°56.682 -999 3.551228 32.476815 13.612665
2006-04-20 08:12:59 51°19.536 2°56.706 -999 3.54926 32.459242 13.680084
2006-04-20 08:13:04 51°19.543 2°56.731 -999 3.548121 32.451701 13.713794
2006-04-20 08:13:09 51°19.55 2°56.757 -999 3.548121 32.451701 13.713794
2006-04-20 08:13:14 51°19.557 2°56.781 -999 3.548743 32.46205 13.747503
2006-04-20 08:13:19 51°19.565 2°56.806 -999 3.547707 32.453946 13.781212
2006-04-20 08:13:24 51°19.572 2°56.83 -999 3.546465 32.443736 13.814922
2006-04-20 08:13:30 51°19.582 2°56.859 -999 3.54605 32.440332 13.814922
2006-04-20 08:13:34 51°19.588 2°56.879 -999 3.545843 32.438227 13.848631
2006-04-20 08:13:39 51°19.596 2°56.903 -999 3.545843 32.438227 13.848631
2006-04-20 08:13:44 51°19.604 2°56.927 -999 3.543876 32.417423 13.848631
2006-04-20 08:13:49 51°19.612 2°56.951 -999 3.54284 32.402869 13.848631
2006-04-20 08:13:54 51°19.62 2°56.975 -999 3.541183 32.381202 13.814922
2006-04-20 08:13:59 51°19.627 2°57 -999 3.540148 32.364245 13.814922
2006-04-20 08:14:04 51°19.634 2°57.024 -999 3.538594 32.343646 13.814922
2006-04-20 08:14:09 51°19.641 2°57.049 -999 3.538594 32.343646 13.814922
2006-04-20 08:14:14 51°19.648 2°57.073 -999 3.537248 32.32596 13.781212
2006-04-20 08:14:19 51°19.656 2°57.098 -999 3.536213 32.311432 13.781212
2006-04-20 08:14:24 51°19.663 2°57.123 -999 3.537145 32.318484 13.747503
2006-04-20 08:14:29 51°19.67 2°57.147 -999 3.536523 32.312178 13.781212
2006-04-20 08:14:34 51°19.677 2°57.172 -999 3.537559 32.323492 13.781212
2006-04-20 08:14:39 51°19.684 2°57.197 -999 3.539216 32.341115 13.848631
2006-04-20 08:14:44 51°19.691 2°57.221 -999 3.539216 32.341115 13.848631
2006-04-20 08:14:49 51°19.699 2°57.246 -999 3.538491 32.337773 13.983469
2006-04-20 08:14:54 51°19.707 2°57.27 -999 3.540251 32.357255 14.084597
2006-04-20 08:14:59 51°19.714 2°57.294 -999 3.537973 32.337337 14.286853
2006-04-20 08:15:04 51°19.722 2°57.318 -999 3.535799 32.319272 14.387982
2006-04-20 08:15:09 51°19.73 2°57.342 -999 3.535799 32.319272 14.387982
2006-04-20 08:15:14 51°19.737 2°57.366 -999 3.533521 32.297744 14.48911
2006-04-20 08:15:19 51°19.745 2°57.39 -999 3.531139 32.274364 14.590238
2006-04-20 08:15:24 51°19.753 2°57.414 -999 3.529379 32.257293 14.623947
2006-04-20 08:15:29 51°19.761 2°57.438 -999 3.527101 32.234165 14.691366
2006-04-20 08:15:34 51°19.768 2°57.462 -999 3.524512 32.206285 14.725076
2006-04-20 08:15:39 51°19.776 2°57.487 -999 3.524512 32.206285 14.725076
2006-04-20 08:15:44 51°19.783 2°57.511 -999 3.523891 32.197578 14.826204
2006-04-20 08:15:49 51°19.79 2°57.535 -999 3.522441 32.181266 14.859913
2006-04-20 08:15:54 51°19.797 2°57.56 -999 3.520888 32.162307 14.893623
2006-04-20 08:15:59 51°19.805 2°57.585 -999 3.520577 32.158356 14.893623
2006-04-20 08:16:04 51°19.812 2°57.609 -999 3.519749 32.151549 14.927332
2006-04-20 08:16:10 51°19.82 2°57.639 -999 3.516642 32.12163 14.927332
2006-04-20 08:16:14 51°19.825 2°57.659 -999 3.516642 32.12163 14.927332
2006-04-20 08:16:19 51°19.832 2°57.684 -999 3.516125 32.116377 14.927332
2006-04-20 08:16:24 51°19.839 2°57.709 -999 3.515503 32.108479 14.927332
2006-04-20 08:16:29 51°19.846 2°57.733 -999 3.515089 32.105873 14.893623
2006-04-20 08:16:34 51°19.853 2°57.758 -999 3.51364 32.09356 14.927332
2006-04-20 08:16:39 51°19.86 2°57.782 -999 3.51364 32.09356 14.927332
2006-04-20 08:16:44 51°19.867 2°57.807 -999 3.512604 32.086245 14.961042
2006-04-20 08:16:49 51°19.875 2°57.831 -999 3.511258 32.072589 14.994751
2006-04-20 08:16:54 51°19.882 2°57.855 -999 3.508877 32.049228 14.994751
2006-04-20 08:16:59 51°19.889 2°57.88 -999 3.508669 32.047924 14.994751
2006-04-20 08:17:04 51°19.896 2°57.904 -999 3.507013 32.031119 15.06217
2006-04-20 08:17:09 51°19.903 2°57.929 -999 3.507013 32.031119 15.06217
2006-04-20 08:17:14 51°19.911 2°57.953 -999 3.507323 32.030289 15.095879
2006-04-20 08:17:19 51°19.917 2°57.977 -999 3.505977 32.016637 15.129589
2006-04-20 08:17:24 51°19.925 2°58.001 -999 3.504942 32.004546 15.163298
2006-04-20 08:17:29 51°19.933 2°58.025 -999 3.503492 31.989052 15.298136
2006-04-20 08:17:34 51°19.941 2°58.049 -999 3.50577 32.012946 15.432973
2006-04-20 08:17:39 51°19.948 2°58.073 -999 3.50577 32.012946 15.432973
2006-04-20 08:17:44 51°19.956 2°58.098 -999 3.506806 32.024242 15.567811
2006-04-20 08:17:49 51°19.963 2°58.122 -999 3.506081 32.016892 15.668939
2006-04-20 08:17:54 51°19.97 2°58.146 -999 3.506806 32.023447 15.770067
2006-04-20 08:17:59 51°19.977 2°58.171 -999 3.50546 32.009001 15.904905
2006-04-20 08:18:04 51°19.985 2°58.195 -999 3.503492 31.987462 16.039742
2006-04-20 08:18:09 51°19.992 2°58.22 -999 3.501214 31.963573 16.275708
2006-04-20 08:18:14 51°19.999 2°58.244 -999 3.501214 31.963573 16.275708
2006-04-20 08:18:19 51°20.006 2°58.269 -999 3.499765 31.948878 16.343127
2006-04-20 08:18:24 51°20.013 2°58.293 -999 3.497797 31.928936 16.477965
2006-04-20 08:18:29 51°20.02 2°58.318 -999 3.49728 31.924482 16.511674
2006-04-20 08:18:34 51°20.027 2°58.343 -999 3.498626 31.935746 16.579093
2006-04-20 08:18:39 51°20.034 2°58.368 -999 3.498626 31.935746 16.579093
2006-04-20 08:18:44 51°20.041 2°58.392 -999 3.498729 31.936795 16.612802
2006-04-20 08:18:49 51°20.048 2°58.417 -999 3.496658 31.916599 16.646512
2006-04-20 08:18:54 51°20.055 2°58.441 -999 3.497901 31.931572 16.680221
2006-04-20 08:19:00 51°20.064 2°58.47 -999 3.49759 31.93001 16.680221
2006-04-20 08:19:04 51°20.07 2°58.49 -999 3.498108 31.937639 16.646512
2006-04-20 08:19:09 51°20.078 2°58.514 -999 3.498108 31.937639 16.646512
2006-04-20 08:19:14 51°20.086 2°58.539 -999 3.496451 31.922431 16.646512
2006-04-20 08:19:19 51°20.094 2°58.563 -999 3.496451 31.924018 16.612802
2006-04-20 08:19:24 51°20.101 2°58.587 -999 3.496037 31.920612 16.612802
2006-04-20 08:19:29 51°20.109 2°58.611 -999 3.496244 31.924298 16.612802
2006-04-20 08:19:34 51°20.117 2°58.635 -999 3.497694 31.940584 16.612802
2006-04-20 08:19:39 51°20.124 2°58.66 -999 3.495416 31.917487 16.511674
2006-04-20 08:19:44 51°20.132 2°58.684 -999 3.495416 31.917487 16.511674
2006-04-20 08:19:49 51°20.139 2°58.709 -999 3.501214 31.97549 16.511674
2006-04-20 08:19:54 51°20.146 2°58.733 -999 3.50225 31.986787 16.511674
2006-04-20 08:19:59 51°20.153 2°58.758 -999 3.502871 31.994678 16.477965
2006-04-20 08:20:04 51°20.16 2°58.782 -999 3.503907 32.004386 16.477965
2006-04-20 08:20:09 51°20.167 2°58.807 -999 3.503907 32.004386 16.477965
2006-04-20 08:20:14 51°20.175 2°58.831 -999 3.504528 32.009892 16.444255
2006-04-20 08:20:19 51°20.181 2°58.856 -999 3.505977 32.0238 16.444255
2006-04-20 08:20:24 51°20.189 2°58.88 -999 3.507634 32.042995 16.444255
2006-04-20 08:20:29 51°20.197 2°58.904 -999 3.506495 32.033033 16.444255
2006-04-20 08:20:34 51°20.205 2°58.928 -999 3.506185 32.029881 16.477965
2006-04-20 08:20:39 51°20.213 2°58.952 -999 3.506185 32.029881 16.477965
2006-04-20 08:20:44 51°20.22 2°58.976 -999 3.506185 32.03227 16.444255
2006-04-20 08:20:49 51°20.228 2°59 -999 3.506495 32.037015 16.477965
2006-04-20 08:20:54 51°20.236 2°59.024 -999 3.506702 32.042303 16.477965
2006-04-20 08:20:59 51°20.244 2°59.049 -999 3.504942 32.025238 16.511674
2006-04-20 08:21:04 51°20.251 2°59.073 -999 3.502457 31.999228 16.579093
2006-04-20 08:21:09 51°20.259 2°59.097 -999 3.502457 31.999228 16.579093
2006-04-20 08:21:14 51°20.266 2°59.122 -999 3.5008 31.979239 16.579093
2006-04-20 08:21:19 51°20.274 2°59.146 -999 3.498522 31.951367 16.579093
2006-04-20 08:21:24 51°20.281 2°59.17 -999 3.497176 31.932953 16.579093
2006-04-20 08:21:29 51°20.289 2°59.195 -999 3.496555 31.918721 16.545383
2006-04-20 08:21:34 51°20.296 2°59.219 -999 3.496658 31.916599 16.511674
2006-04-20 08:21:39 51°20.304 2°59.243 -999 3.49759 31.928424 16.477965
2006-04-20 08:21:44 51°20.312 2°59.268 -999 3.49759 31.928424 16.477965
2006-04-20 08:21:49 51°20.319 2°59.292 -999 3.493138 31.888843 16.444255
2006-04-20 08:21:54 51°20.326 2°59.316 -999 3.498833 31.950546 16.410546
2006-04-20 08:21:59 51°20.334 2°59.34 -999 3.499454 31.958434 16.376836
2006-04-20 08:22:04 51°20.342 2°59.365 -999 3.499661 31.961329 16.343127
2006-04-20 08:22:09 51°20.349 2°59.39 -999 3.499661 31.961329 16.343127
2006-04-20 08:22:14 51°20.356 2°59.414 -999 3.499661 31.965301 16.343127
2006-04-20 08:22:19 51°20.364 2°59.439 -999 3.498315 31.949266 16.275708
2006-04-20 08:22:24 51°20.372 2°59.463 -999 3.498419 31.951111 16.275708
2006-04-20 08:22:29 51°20.379 2°59.488 -999 3.498729 31.952672 16.241999
2006-04-20 08:22:34 51°20.387 2°59.513 -999 3.495002 31.910908 16.208289
2006-04-20 08:22:39 51°20.394 2°59.538 -999 3.495002 31.910908 16.208289
2006-04-20 08:22:44 51°20.401 2°59.562 -999 3.500593 31.966012 16.107161
2006-04-20 08:22:49 51°20.408 2°59.587 -999 3.501732 31.968822 15.972324
2006-04-20 08:22:54 51°20.416 2°59.612 -999 3.503803 31.974723 15.803777
2006-04-20 08:22:59 51°20.424 2°59.636 -999 3.507737 31.998708 15.63523
2006-04-20 08:23:04 51°20.432 2°59.661 -999 3.511879 32.024775 15.534101
2006-04-20 08:23:09 51°20.44 2°59.685 -999 3.512707 32.019662 15.466683
2006-04-20 08:23:14 51°20.448 2°59.709 -999 3.512707 32.019662 15.466683
2006-04-20 08:23:20 51°20.458 2°59.739 -999 3.515917 32.040244 15.399264
2006-04-20 08:23:24 51°20.464 2°59.758 -999 3.516641 32.037258 15.432973
2006-04-20 08:23:29 51°20.472 2°59.783 -999 3.516641 32.031703 15.466683
2006-04-20 08:23:34 51°20.479 2°59.807 -999 3.515399 32.01834 15.567811
2006-04-20 08:23:39 51°20.487 2°59.832 -999 3.515399 32.01834 15.567811
2006-04-20 08:23:44 51°20.494 2°59.857 -999 3.514467 32.010499 15.60152
2006-04-20 08:23:49 51°20.502 2°59.882 -999 3.513328 31.998185 15.63523
2006-04-20 08:23:54 51°20.51 2°59.906 -999 3.512292 31.986127 15.668939
2006-04-20 08:23:59 51°20.517 2°59.931 -999 3.512085 31.980864 15.736358
2006-04-20 08:24:04 51°20.525 2°59.955 -999 3.51136 31.970368 15.736358
2006-04-20 08:24:09 51°20.533 2°59.979 -999 3.51136 31.970368 15.736358
2006-04-20 08:24:14 51°20.541 3°0.004 -999 3.511878 31.972436 15.736358
2006-04-20 08:24:19 51°20.55 3°0.028 -999 3.510635 31.95829 15.770067
2006-04-20 08:24:24 51°20.558 3°0.052 -999 3.510635 31.956708 15.803777
2006-04-20 08:24:29 51°20.567 3°0.076 -999 3.510532 31.957244 15.837486
2006-04-20 08:24:34 51°20.575 3°0.1 -999 3.508875 31.942868 15.837486
2006-04-20 08:24:39 51°20.583 3°0.125 -999 3.508875 31.942868 15.837486
2006-04-20 08:24:44 51°20.591 3°0.149 -999 3.507736 31.931354 15.871195
2006-04-20 08:24:48 51°20.598 3°0.169 -999 3.506183 31.917234 15.871195
2006-04-20 08:24:54 51°20.607 3°0.198 -999 3.50608 31.916977 15.904905
2006-04-20 08:24:59 51°20.615 3°0.222 -999 3.505562 31.911743 15.938614
2006-04-20 08:25:04 51°20.623 3°0.246 -999 3.502456 31.880344 16.039742
2006-04-20 08:25:09 51°20.631 3°0.27 -999 3.496243 31.816772 16.17458
2006-04-20 08:25:14 51°20.639 3°0.294 -999 3.496243 31.816772 16.17458
2006-04-20 08:25:19 51°20.647 3°0.319 -999 3.490652 31.762642 16.376836
2006-04-20 08:25:24 51°20.655 3°0.343 -999 3.47978 31.65989 16.545383
2006-04-20 08:25:29 51°20.663 3°0.368 -999 3.470255 31.571522 16.680221
2006-04-20 08:25:34 51°20.67 3°0.392 -999 3.460109 31.47688 16.848768
2006-04-20 08:25:38 51°20.677 3°0.411 -999 3.460109 31.47688 16.848768
2006-04-20 08:25:44 51°20.686 3°0.441 -999 3.456382 31.448603 17.017315
2006-04-20 08:25:49 51°20.694 3°0.465 -999 3.449342 31.386082 17.219571
2006-04-20 08:25:54 51°20.702 3°0.489 -999 3.441992 31.320414 17.455537
2006-04-20 08:25:59 51°20.709 3°0.514 -999 3.437954 31.286634 17.590375
2006-04-20 08:26:04 51°20.717 3°0.539 -999 3.432467 31.242862 17.691503
2006-04-20 08:26:09 51°20.724 3°0.563 -999 3.432467 31.242862 17.691503
2006-04-20 08:26:14 51°20.732 3°0.588 -999 3.429154 31.214057 17.725212
2006-04-20 08:26:19 51°20.739 3°0.612 -999 3.426773 31.194657 17.826341
2006-04-20 08:26:24 51°20.747 3°0.637 -999 3.423564 31.169212 17.927469
2006-04-20 08:26:29 51°20.755 3°0.661 -999 3.419941 31.137258 17.994888
2006-04-20 08:26:34 51°20.763 3°0.685 -999 3.417767 31.120712 18.096016
2006-04-20 08:26:39 51°20.771 3°0.709 -999 3.417767 31.120712 18.096016
2006-04-20 08:26:44 51°20.78 3°0.733 -999 3.412281 31.074561 18.129725
2006-04-20 08:26:49 51°20.788 3°0.757 -999 3.410831 31.066869 18.129725
2006-04-20 08:26:54 51°20.796 3°0.781 -999 3.410417 31.070408 18.129725
2006-04-20 08:26:59 51°20.805 3°0.805 -999 3.409589 31.06899 18.197144
2006-04-20 08:27:04 51°20.814 3°0.828 -999 3.408036 31.057158 18.197144
2006-04-20 08:27:09 51°20.823 3°0.852 -999 3.407001 31.049011 18.264563
2006-04-20 08:27:14 51°20.832 3°0.874 -999 3.407001 31.049011 18.264563
2006-04-20 08:27:19 51°20.841 3°0.897 -999 3.41021 31.083771 18.230853
2006-04-20 08:27:24 51°20.851 3°0.92 -999 3.408865 31.072484 18.230853
2006-04-20 08:27:29 51°20.86 3°0.943 -999 3.40783 31.061245 18.197144
2006-04-20 08:27:34 51°20.87 3°0.966 -999 3.405449 31.036403 18.197144
2006-04-20 08:27:39 51°20.879 3°0.99 -999 3.405449 31.036403 18.197144
2006-04-20 08:27:44 51°20.888 3°1.014 -999 3.405138 31.030948 18.197144
2006-04-20 08:27:49 51°20.897 3°1.037 -999 3.403999 31.018667 18.197144
2006-04-20 08:27:54 51°20.906 3°1.061 -999 3.403689 31.017843 18.264563
2006-04-20 08:27:59 51°20.915 3°1.084 -999 3.399962 30.987116 18.331982
2006-04-20 08:28:04 51°20.924 3°1.107 -999 3.400066 30.990475 18.298272
2006-04-20 08:28:09 51°20.932 3°1.131 -999 3.400066 30.990475 18.298272
2006-04-20 08:28:14 51°20.941 3°1.155 -999 3.398306 30.971145 18.264563
2006-04-20 08:28:19 51°20.949 3°1.178 -999 3.39903 30.976157 18.230853
2006-04-20 08:28:24 51°20.958 3°1.202 -999 3.396649 30.947475 18.264563
2006-04-20 08:28:29 51°20.966 3°1.226 -999 3.396546 30.948738 18.331982
2006-04-20 08:28:34 51°20.974 3°1.25 -999 3.397374 30.959418 18.298272
2006-04-20 08:28:39 51°20.981 3°1.274 -999 3.397995 30.966465 18.331982
2006-04-20 08:28:44 51°20.989 3°1.298 -999 3.397995 30.966465 18.331982
2006-04-20 08:28:49 51°20.997 3°1.322 -999 3.397167 30.961947 18.331982
2006-04-20 08:28:54 51°21.004 3°1.345 -999 3.397167 30.965799 18.3994
2006-04-20 08:28:59 51°21.013 3°1.369 -999 3.399962 31.000999 18.567947
2006-04-20 08:29:04 51°21.022 3°1.391 -999 3.401205 31.022056 18.803913
2006-04-20 08:29:09 51°21.031 3°1.414 -999 3.401205 31.022056 18.803913
2006-04-20 08:29:14 51°21.039 3°1.436 -999 3.404207 31.072543 19.039879
2006-04-20 08:29:19 51°21.048 3°1.459 -999 3.403586 31.096476 19.242136
2006-04-20 08:29:24 51°21.057 3°1.482 -999 3.403069 31.126174 19.376973
2006-04-20 08:29:29 51°21.066 3°1.504 -999 3.401413 31.138149 19.478101
2006-04-20 08:29:34 51°21.075 3°1.527 -999 3.400482 31.152057 19.478101
2006-04-20 08:29:39 51°21.084 3°1.549 -999 3.400482 31.152057 19.478101
2006-04-20 08:29:44 51°21.094 3°1.571 -999 3.400482 31.162194 19.309554
2006-04-20 08:29:49 51°21.104 3°1.593 -999 3.400275 31.167112 19.275845
2006-04-20 08:29:54 51°21.114 3°1.616 -999 3.398205 31.156987 19.343264
2006-04-20 08:30:00 51°21.126 3°1.642 -999 3.396755 31.14615 19.511811
2006-04-20 08:30:04 51°21.133 3°1.66 -999 3.394892 31.126422 19.57923
2006-04-20 08:30:09 51°21.142 3°1.683 -999 3.394892 31.126422 19.57923
2006-04-20 08:30:14 51°21.151 3°1.705 -999 3.393029 31.102021 19.376973
2006-04-20 08:30:19 51°21.162 3°1.727 -999 3.391993 31.083712 19.174717
2006-04-20 08:30:24 51°21.172 3°1.749 -999 3.388577 31.043557 19.107298
2006-04-20 08:30:29 51°21.183 3°1.77 -999 3.388267 31.03574 19.039879
2006-04-20 08:30:34 51°21.193 3°1.791 -999 3.388474 31.034736 19.00617
2006-04-20 08:30:39 51°21.202 3°1.813 -999 3.385886 31.012333 19.039879
2006-04-20 08:30:44 51°21.213 3°1.835 -999 3.385886 31.012333 19.039879
2006-04-20 08:30:49 51°21.222 3°1.857 -999 3.385161 31.012736 19.073589
2006-04-20 08:30:54 51°21.233 3°1.879 -999 3.383816 31.005275 19.073589
2006-04-20 08:30:59 51°21.242 3°1.901 -999 3.383402 31.001844 19.174717
2006-04-20 08:31:04 51°21.252 3°1.923 -999 3.386714 31.040169 19.208426
2006-04-20 08:31:10 51°21.263 3°1.95 -999 3.386714 31.040169 19.208426
2006-04-20 08:31:14 51°21.271 3°1.967 -999 3.385783 31.034587 19.107298
2006-04-20 08:31:19 51°21.281 3°1.989 -999 3.385679 31.035867 19.141007
2006-04-20 08:31:24 51°21.291 3°2.012 -999 3.384023 31.02214 19.073589
2006-04-20 08:31:30 51°21.303 3°2.038 -999 3.381849 31.000819 19.039879
2006-04-20 08:31:34 51°21.311 3°2.055 -999 3.382884 31.00668 18.97246
2006-04-20 08:31:39 51°21.321 3°2.077 -999 3.382884 31.00668 18.97246
2006-04-20 08:31:44 51°21.331 3°2.099 -999 3.381953 30.995658 18.938751
2006-04-20 08:31:49 51°21.341 3°2.121 -999 3.381538 30.989121 18.938751
2006-04-20 08:31:54 51°21.351 3°2.143 -999 3.381435 30.984965 18.938751
2006-04-20 08:31:59 51°21.361 3°2.165 -999 3.379365 30.968583 18.97246
2006-04-20 08:32:04 51°21.37 3°2.187 -999 3.378226 30.960891 19.107298
2006-04-20 08:32:09 51°21.38 3°2.21 -999 3.37657 30.950264 19.107298
2006-04-20 08:32:14 51°21.389 3°2.232 -999 3.37657 30.950264 19.107298
2006-04-20 08:32:19 51°21.399 3°2.254 -999 3.374396 30.934373 19.208426
2006-04-20 08:32:24 51°21.408 3°2.277 -999 3.372637 30.921911 19.208426
2006-04-20 08:32:29 51°21.418 3°2.299 -999 3.372326 30.91953 19.343264
2006-04-20 08:32:34 51°21.428 3°2.322 -999 3.370359 30.903411 19.478101
2006-04-20 08:32:39 51°21.437 3°2.345 -999 3.370359 30.903411 19.478101
2006-04-20 08:32:44 51°21.446 3°2.368 -999 3.367565 30.878096 19.511811
2006-04-20 08:32:49 51°21.456 3°2.39 -999 3.366737 30.872775 19.410683
2006-04-20 08:32:54 51°21.465 3°2.412 -999 3.366012 30.866182 19.343264
2006-04-20 08:32:59 51°21.475 3°2.435 -999 3.366012 30.865408 19.376973
2006-04-20 08:33:04 51°21.484 3°2.457 -999 3.365184 30.858538 19.444392
2006-04-20 08:33:09 51°21.494 3°2.48 -999 3.365184 30.858538 19.444392
2006-04-20 08:33:14 51°21.503 3°2.502 -999 3.363631 30.8443 19.478101
2006-04-20 08:33:19 51°21.512 3°2.525 -999 3.363942 30.849778 19.511811
2006-04-20 08:33:24 51°21.522 3°2.547 -999 3.363424 30.844516 19.511811
2006-04-20 08:33:29 51°21.531 3°2.57 -999 3.363631 30.845074 19.511811
2006-04-20 08:33:34 51°21.54 3°2.593 -999 3.363321 30.839596 19.54552
2006-04-20 08:33:39 51°21.549 3°2.616 -999 3.363321 30.839596 19.54552
2006-04-20 08:33:44 51°21.557 3°2.64 -999 3.363114 30.832852 19.57923
2006-04-20 08:33:49 51°21.564 3°2.664 -999 3.363114 30.830533 19.54552
2006-04-20 08:33:54 51°21.57 3°2.689 -999 3.362078 30.819241 19.376973
2006-04-20 08:33:59 51°21.575 3°2.714 -999 3.362389 30.822396 19.309554
2006-04-20 08:34:04 51°21.58 3°2.74 -999 3.36301 30.823298 19.242136
2006-04-20 08:34:10 51°21.585 3°2.771 -999 3.364459 30.831068 19.208426
2006-04-20 08:34:14 51°21.587 3°2.792 -999 3.364459 30.831068 19.208426
2006-04-20 08:34:19 51°21.591 3°2.818 -999 3.366322 30.842269 19.208426
2006-04-20 08:34:24 51°21.594 3°2.844 -999 3.363424 30.817463 19.242136
2006-04-20 08:34:29 51°21.597 3°2.87 -999 3.363527 30.820059 19.174717
2006-04-20 08:34:34 51°21.599 3°2.896 -999 3.363838 30.823214 19.174717
2006-04-20 08:34:39 51°21.601 3°2.923 -999 3.363838 30.823214 19.174717
2006-04-20 08:34:44 51°21.605 3°2.949 -999 3.361768 30.809905 19.174717
2006-04-20 08:34:49 51°21.608 3°2.975 -999 3.359491 30.793716 19.174717
2006-04-20 08:34:54 51°21.612 3°3 -999 3.357524 30.779135 19.208426
2006-04-20 08:34:59 51°21.618 3°3.025 -999 3.356179 30.77009 19.309554
2006-04-20 08:35:04 51°21.624 3°3.05 -999 3.355868 30.770793 19.410683
2006-04-20 08:35:09 51°21.631 3°3.074 -999 3.355868 30.770793 19.410683
2006-04-20 08:35:14 51°21.638 3°3.098 -999 3.354833 30.765674 19.444392
2006-04-20 08:35:19 51°21.645 3°3.122 -999 3.353281 30.75838 19.444392
2006-04-20 08:35:24 51°21.652 3°3.146 -999 3.352142 30.751434 19.376973
2006-04-20 08:35:29 51°21.658 3°3.171 -999 3.351728 30.746452 19.242136
2006-04-20 08:35:34 51°21.663 3°3.196 -999 3.351935 30.743155 19.174717
2006-04-20 08:35:39 51°21.669 3°3.221 -999 3.351935 30.737756 19.174717
2006-04-20 08:35:44 51°21.674 3°3.246 -999 3.351935 30.737756 19.174717
2006-04-20 08:35:49 51°21.68 3°3.271 -999 3.352245 30.733972 19.107298
2006-04-20 08:35:54 51°21.685 3°3.297 -999 3.353177 30.734188 19.107298
2006-04-20 08:35:59 51°21.69 3°3.322 -999 3.353384 30.730127 19.174717
2006-04-20 08:36:04 51°21.696 3°3.347 -999 3.350692 30.7051 19.242136
2006-04-20 08:36:09 51°21.702 3°3.372 -999 3.348829 30.689253 19.275845
2006-04-20 08:36:14 51°21.708 3°3.397 -999 3.348829 30.689253 19.275845
2006-04-20 08:36:19 51°21.714 3°3.422 -999 3.346759 30.672841 19.343264
2006-04-20 08:36:25 51°21.721 3°3.452 -999 3.345103 30.659093 19.410683
2006-04-20 08:36:29 51°21.726 3°3.472 -999 3.343551 30.644858 19.343264
2006-04-20 08:36:34 51°21.731 3°3.497 -999 3.341895 30.631109 19.309554
2006-04-20 08:36:39 51°21.737 3°3.523 -999 3.341895 30.631109 19.309554
2006-04-20 08:36:44 51°21.742 3°3.548 -999 3.340756 30.621079 19.309554
2006-04-20 08:36:49 51°21.747 3°3.573 -999 3.34086 30.620594 19.275845
2006-04-20 08:36:54 51°21.752 3°3.599 -999 3.340549 30.614368 19.242136
2006-04-20 08:36:59 51°21.757 3°3.624 -999 3.341584 30.620273 19.208426
2006-04-20 08:37:04 51°21.761 3°3.65 -999 3.342619 30.626177 19.208426
2006-04-20 08:37:09 51°21.766 3°3.676 -999 3.342619 30.626177 19.208426
2006-04-20 08:37:14 51°21.771 3°3.702 -999 3.340031 30.599901 19.208426
2006-04-20 08:37:19 51°21.775 3°3.727 -999 3.343757 30.631595 19.208426
2006-04-20 08:37:24 51°21.781 3°3.753 -999 3.343654 30.627473 19.242136
2006-04-20 08:37:29 51°21.786 3°3.778 -999 3.341066 30.605039 19.275845
2006-04-20 08:37:34 51°21.791 3°3.804 -999 3.343654 30.632848 19.242136
2006-04-20 08:37:39 51°21.796 3°3.829 -999 3.340859 30.606774 19.208426
2006-04-20 08:37:44 51°21.801 3°3.854 -999 3.340859 30.606774 19.208426
2006-04-20 08:37:49 51°21.806 3°3.88 -999 3.340652 30.603905 19.141007
2006-04-20 08:37:54 51°21.811 3°3.906 -999 3.340031 30.599133 19.174717
2006-04-20 08:37:59 51°21.816 3°3.931 -999 3.340549 30.603621 19.141007
2006-04-20 08:38:04 51°21.821 3°3.957 -999 3.343861 30.63495 19.141007
2006-04-20 08:38:10 51°21.827 3°3.988 -999 3.343861 30.63495 19.141007
2006-04-20 08:38:14 51°21.831 3°4.008 -999 3.340135 30.597883 19.107298
2006-04-20 08:38:19 51°21.836 3°4.034 -999 3.343033 30.62731 19.107298
2006-04-20 08:38:24 51°21.841 3°4.059 -999 3.341687 30.616717 19.107298
2006-04-20 08:38:29 51°21.846 3°4.085 -999 3.338996 30.589391 19.107298
2006-04-20 08:38:34 51°21.852 3°4.11 -999 3.340342 30.603821 19.107298
2006-04-20 08:38:39 51°21.857 3°4.136 -999 3.340342 30.603821 19.107298
2006-04-20 08:38:44 51°21.863 3°4.161 -999 3.343654 30.638225 19.00617
2006-04-20 08:38:50 51°21.868 3°4.192 -999 3.341584 30.618737 18.97246
2006-04-20 08:38:54 51°21.872 3°4.212 -999 3.340652 30.609277 18.97246
2006-04-20 08:38:59 51°21.876 3°4.238 -999 3.339203 30.596096 18.97246
2006-04-20 08:39:04 51°21.881 3°4.264 -999 3.337651 30.581864 19.00617
2006-04-20 08:39:10 51°21.887 3°4.295 -999 3.337754 30.583682 18.938751
2006-04-20 08:39:14 51°21.89 3°4.315 -999 3.337754 30.583682 18.938751
2006-04-20 08:39:19 51°21.895 3°4.341 -999 3.3391 30.595812 18.97246
2006-04-20 08:39:24 51°21.9 3°4.367 -999 3.33703 30.573257 18.97246
2006-04-20 08:39:29 51°21.904 3°4.392 -999 3.339203 30.595329 19.00617
2006-04-20 08:39:34 51°21.909 3°4.418 -999 3.337237 30.576893 19.073589
2006-04-20 08:39:39 51°21.914 3°4.444 -999 3.334442 30.553114 19.141007
2006-04-20 08:39:44 51°21.919 3°4.469 -999 3.334442 30.553114 19.141007
2006-04-20 08:39:49 51°21.923 3°4.495 -999 3.332786 30.540128 19.174717
2006-04-20 08:39:54 51°21.928 3°4.521 -999 3.332165 30.538418 19.208426
2006-04-20 08:39:59 51°21.933 3°4.546 -999 3.329785 30.51807 19.242136
2006-04-20 08:40:04 51°21.938 3°4.572 -999 3.329578 30.518265 19.242136
2006-04-20 08:40:09 51°21.942 3°4.598 -999 3.329578 30.518265 19.242136
2006-04-20 08:40:14 51°21.946 3°4.624 -999 3.328543 30.506986 19.208426
2006-04-20 08:40:20 51°21.951 3°4.655 -999 3.328129 30.501251 19.242136
2006-04-20 08:40:24 51°21.954 3°4.676 -999 3.324713 30.469623 19.275845
2006-04-20 08:40:29 51°21.958 3°4.702 -999 3.32254 30.445259 19.275845
2006-04-20 08:40:34 51°21.963 3°4.728 -999 3.324506 30.46217 19.309554
2006-04-20 08:40:39 51°21.968 3°4.753 -999 3.324506 30.46217 19.309554
2006-04-20 08:40:44 51°21.972 3°4.779 -999 3.322746 30.442777 19.410683
2006-04-20 08:40:49 51°21.977 3°4.804 -999 3.319124 30.409055 19.444392
2006-04-20 08:40:54 51°21.981 3°4.83 -999 3.31457 30.360544 19.376973
2006-04-20 08:40:59 51°21.985 3°4.856 -999 3.313431 30.346706 19.410683
2006-04-20 08:41:04 51°21.989 3°4.882 -999 3.314777 30.364931 19.376973
2006-04-20 08:41:09 51°21.993 3°4.908 -999 3.313639 30.356423 19.376973
2006-04-20 08:41:14 51°21.996 3°4.934 -999 3.313639 30.356423 19.376973
2006-04-20 08:41:19 51°22 3°4.96 -999 3.310637 30.327482 19.343264
2006-04-20 08:41:24 51°22.003 3°4.986 -999 3.30805 30.298181 19.343264
2006-04-20 08:41:29 51°22.007 3°5.012 -999 3.30805 30.297421 19.343264
2006-04-20 08:41:34 51°22.011 3°5.038 -999 3.306394 30.281379 19.376973
2006-04-20 08:41:39 51°22.015 3°5.064 -999 3.306394 30.281379 19.376973
2006-04-20 08:41:44 51°22.02 3°5.089 -999 3.308671 30.307524 19.410683
2006-04-20 08:41:49 51°22.025 3°5.115 -999 3.303392 30.257761 19.478101
2006-04-20 08:41:54 51°22.03 3°5.141 -999 3.301115 30.23997 19.478101
2006-04-20 08:41:59 51°22.034 3°5.166 -999 3.299046 30.225036 19.511811
2006-04-20 08:42:04 51°22.039 3°5.192 -999 3.297286 30.211732 19.54552
2006-04-20 08:42:09 51°22.043 3°5.218 -999 3.297286 30.211732 19.54552
2006-04-20 08:42:14 51°22.048 3°5.243 -999 3.296562 30.20362 19.54552
2006-04-20 08:42:19 51°22.052 3°5.269 -999 3.295527 30.193874 19.57923
2006-04-20 08:42:24 51°22.056 3°5.295 -999 3.294181 30.180978 19.57923
2006-04-20 08:42:29 51°22.059 3°5.321 -999 3.29325 30.170768 19.57923
2006-04-20 08:42:34 51°22.063 3°5.346 -999 3.292111 30.1577 19.57923
2006-04-20 08:42:40 51°22.068 3°5.377 -999 3.291283 30.144758 19.57923
2006-04-20 08:42:44 51°22.071 3°5.398 -999 3.291283 30.144758 19.57923
2006-04-20 08:42:49 51°22.075 3°5.423 -999 3.290352 30.135308 19.612939
2006-04-20 08:42:54 51°22.08 3°5.449 -999 3.288903 30.124392 19.612939
2006-04-20 08:42:59 51°22.084 3°5.475 -999 3.287661 30.114817 19.612939
2006-04-20 08:43:04 51°22.088 3°5.5 -999 3.287351 30.112424 19.57923
2006-04-20 08:43:09 51°22.093 3°5.526 -999 3.285798 30.100454 19.612939
2006-04-20 08:43:14 51°22.098 3°5.551 -999 3.285798 30.100454 19.612939
2006-04-20 08:43:19 51°22.103 3°5.577 -999 3.283832 30.085793 19.57923
2006-04-20 08:43:24 51°22.107 3°5.602 -999 3.283522 30.083398 19.54552
2006-04-20 08:43:30 51°22.113 3°5.633 -999 3.283108 30.079197 19.54552
2006-04-20 08:43:34 51°22.117 3°5.654 -999 3.282073 30.068696 19.511811
2006-04-20 08:43:39 51°22.121 3°5.679 -999 3.282073 30.068696 19.511811
2006-04-20 08:43:44 51°22.125 3°5.705 -999 3.282901 30.07332 19.410683
2006-04-20 08:43:50 51°22.13 3°5.736 -999 3.283211 30.071937 19.343264
2006-04-20 08:43:54 51°22.134 3°5.757 -999 3.286109 30.0968 19.309554
2006-04-20 08:44:00 51°22.138 3°5.787 -999 3.283728 30.065106 19.242136
2006-04-20 08:44:04 51°22.141 3°5.808 -999 3.285177 30.064705 19.242136
2006-04-20 08:44:09 51°22.145 3°5.834 -999 3.285177 30.064705 19.242136
2006-04-20 08:44:14 51°22.148 3°5.86 -999 3.285591 30.059851 19.242136
2006-04-20 08:44:19 51°22.152 3°5.885 -999 3.285901 30.056213 19.242136
2006-04-20 08:44:24 51°22.155 3°5.911 -999 3.285694 30.049595 19.309554
2006-04-20 08:44:29 51°22.159 3°5.937 -999 3.284245 30.037178 19.343264
2006-04-20 08:44:34 51°22.162 3°5.963 -999 3.283935 30.032527 19.343264
2006-04-20 08:44:39 51°22.166 3°5.988 -999 3.284142 30.032365 19.410683
2006-04-20 08:44:44 51°22.171 3°6.013 -999 3.284142 30.032365 19.410683
2006-04-20 08:44:49 51°22.175 3°6.039 -999 3.283624 30.027124 19.410683
2006-04-20 08:44:54 51°22.179 3°6.064 -999 3.281658 30.011724 19.444392
2006-04-20 08:44:59 51°22.183 3°6.09 -999 3.280727 30.010567 19.376973
2006-04-20 08:45:04 51°22.187 3°6.115 -999 3.278554 29.999084 19.376973
2006-04-20 08:45:09 51°22.191 3°6.141 -999 3.277829 29.995506 19.343264
2006-04-20 08:45:14 51°22.194 3°6.166 -999 3.277829 29.995506 19.343264
2006-04-20 08:45:19 51°22.197 3°6.192 -999 3.276691 29.987732 19.343264
2006-04-20 08:45:24 51°22.201 3°6.218 -999 3.276484 29.98714 19.309554
2006-04-20 08:45:29 51°22.204 3°6.243 -999 3.276173 29.984745 19.275845
2006-04-20 08:45:34 51°22.207 3°6.269 -999 3.27814 29.9979 19.275845
2006-04-20 08:45:39 51°22.211 3°6.295 -999 3.27814 29.9979 19.275845
2006-04-20 08:45:44 51°22.214 3°6.321 -999 3.279174 30.003871 19.242136
2006-04-20 08:45:49 51°22.217 3°6.346 -999 3.280209 30.015112 19.208426
2006-04-20 08:45:54 51°22.221 3°6.372 -999 3.277001 29.989374 19.208426
2006-04-20 08:45:59 51°22.224 3°6.398 -999 3.276484 29.992409 19.174717
2006-04-20 08:46:04 51°22.227 3°6.423 -999 3.277622 30.006963 19.107298
2006-04-20 08:46:09 51°22.23 3°6.449 -999 3.277622 30.006963 19.107298
2006-04-20 08:46:14 51°22.234 3°6.474 -999 3.27607 29.988965 19.107298
2006-04-20 08:46:19 51°22.237 3°6.5 -999 3.276587 29.993458 19.039879
2006-04-20 08:46:24 51°22.24 3°6.525 -999 3.277105 29.997951 18.97246
2006-04-20 08:46:29 51°22.243 3°6.551 -999 3.27638 29.996631 18.938751
2006-04-20 08:46:34 51°22.247 3°6.576 -999 3.277829 30.014336 18.905042
2006-04-20 08:46:39 51°22.25 3°6.602 -999 3.276277 30.000855 18.837623
2006-04-20 08:46:44 51°22.253 3°6.627 -999 3.276277 30.000855 18.837623
2006-04-20 08:46:49 51°22.257 3°6.653 -999 3.276691 30.007313 18.770204
2006-04-20 08:46:54 51°22.26 3°6.678 -999 3.278864 30.033127 18.736494
2006-04-20 08:46:59 51°22.264 3°6.703 -999 3.279692 30.04379 18.669076
2006-04-20 08:47:04 51°22.266 3°6.729 -999 3.27783 30.029418 18.669076
2006-04-20 08:47:10 51°22.27 3°6.759 -999 3.27783 30.029418 18.669076
2006-04-20 08:47:14 51°22.272 3°6.78 -999 3.277623 30.028827 18.635366
2006-04-20 08:47:19 51°22.276 3°6.805 -999 3.27783 30.034701 18.601657
2006-04-20 08:47:24 51°22.279 3°6.83 -999 3.278244 30.041922 18.601657
2006-04-20 08:47:29 51°22.282 3°6.856 -999 3.281142 30.078137 18.601657
2006-04-20 08:47:34 51°22.285 3°6.881 -999 3.278037 30.05115 18.567947
2006-04-20 08:47:39 51°22.289 3°6.907 -999 3.278037 30.05115 18.567947
2006-04-20 08:47:44 51°22.292 3°6.932 -999 3.276795 30.046097 18.534238
2006-04-20 08:47:49 51°22.295 3°6.958 -999 3.275967 30.044491 18.534238
2006-04-20 08:47:54 51°22.299 3°6.983 -999 3.276174 30.045081 18.500529
2006-04-20 08:47:59 51°22.302 3°7.009 -999 3.277106 30.053785 18.500529
2006-04-20 08:48:04 51°22.306 3°7.034 -999 3.279175 30.074808 18.500529
2006-04-20 08:48:09 51°22.309 3°7.06 -999 3.276381 30.051719 18.500529
2006-04-20 08:48:14 51°22.313 3°7.085 -999 3.276381 30.051719 18.500529
2006-04-20 08:48:19 51°22.317 3°7.111 -999 3.277002 30.064078 18.500529
2006-04-20 08:48:24 51°22.32 3°7.136 -999 3.276692 30.066977 18.500529
2006-04-20 08:48:29 51°22.324 3°7.162 -999 3.275243 30.054524 18.534238
2006-04-20 08:48:34 51°22.327 3°7.187 -999 3.274312 30.046571 18.534238
2006-04-20 08:48:39 51°22.331 3°7.212 -999 3.275967 30.067184 18.534238
2006-04-20 08:48:44 51°22.335 3°7.238 -999 3.275967 30.067184 18.534238
2006-04-20 08:48:49 51°22.338 3°7.263 -999 3.275346 30.059359 18.534238
2006-04-20 08:48:54 51°22.342 3°7.289 -999 3.272966 30.034412 18.534238
2006-04-20 08:48:59 51°22.345 3°7.315 -999 3.272656 30.032769 18.567947
2006-04-20 08:49:04 51°22.348 3°7.34 -999 3.272345 30.031882 18.601657
2006-04-20 08:49:09 51°22.351 3°7.366 -999 3.272345 30.031882 18.601657